Observation data for Sierra Blanca on 05/26/2019      Previous  Date       Current Mesonet Observations  Soil Data  Daily Summary Page  Observations in Plain Language
KSB1 260500Z 20004KT 28/03 A2998 RMK A01 T02810033  RH  020%=      5-min Rain = 0
KSB1 260501Z 21002KT 28/02 A2998 RMK A01 T02810016  RH  018%=      5-min Rain = 0
KSB1 260502Z 31002KT 28/02 A2998 RMK A01 T02830018  RH  018%=      5-min Rain = 0
KSB1 260503Z 07001KT 28/02 A2998 RMK A01 T02840015  RH  018%=      5-min Rain = 0
KSB1 260504Z 13004KT 29/03 A2998 RMK A01 T02850029  RH  019%=      5-min Rain = 0
KSB1 260505Z 14003KT 28/04 A2998 RMK A01 T02820036  RH  021%=      5-min Rain = 0
KSB1 260506Z 14004KT 28/04 A2998 RMK A01 T02800040  RH  022%=      5-min Rain = 0
KSB1 260507Z 13007KT 28/05 A2998 RMK A01 T02760046  RH  023%=      5-min Rain = 0
KSB1 260508Z 12007KT 27/03 A2998 RMK A01 T02720030  RH  021%=      5-min Rain = 0
KSB1 260509Z 13005KT 27/03 A2998 RMK A01 T02710026  RH  020%=      5-min Rain = 0
KSB1 260510Z 13006KT 27/03 A2998 RMK A01 T02710030  RH  021%=      5-min Rain = 0
KSB1 260511Z 14004KT 27/03 A2998 RMK A01 T02690027  RH  021%=      5-min Rain = 0
KSB1 260512Z 15003KT 27/02 A2998 RMK A01 T02690021  RH  020%=      5-min Rain = 0
KSB1 260513Z 17002KT 27/02 A2998 RMK A01 T02700020  RH  020%=      5-min Rain = 0
KSB1 260514Z 18003KT 27/03 A2998 RMK A01 T02700026  RH  021%=      5-min Rain = 0
KSB1 260515Z 19003KT 27/03 A2998 RMK A01 T02680031  RH  022%=      5-min Rain = 0
KSB1 260516Z 21004KT 27/03 A2998 RMK A01 T02650031  RH  022%=      5-min Rain = 0
KSB1 260517Z 22003KT 26/03 A2998 RMK A01 T02630031  RH  022%=      5-min Rain = 0
KSB1 260518Z 23002KT 26/03 A2998 RMK A01 T02610029  RH  022%=      5-min Rain = 0
KSB1 260519Z 23002KT 26/03 A2998 RMK A01 T02590027  RH  022%=      5-min Rain = 0
KSB1 260520Z 20001KT 26/03 A2998 RMK A01 T02580027  RH  022%=      5-min Rain = 0
KSB1 260521Z 20001KT 26/03 A2998 RMK A01 T02570025  RH  022%=      5-min Rain = 0
KSB1 260522Z 20001KT 26/02 A2998 RMK A01 T02580021  RH  021%=      5-min Rain = 0
KSB1 260523Z 17001KT 26/02 A2998 RMK A01 T02590020  RH  021%=      5-min Rain = 0
KSB1 260524Z 19002KT 26/02 A2998 RMK A01 T02610022  RH  021%=      5-min Rain = 0
KSB1 260525Z 22002KT 26/03 A2998 RMK A01 T02620025  RH  022%=      5-min Rain = 0
KSB1 260526Z 22004KT 26/03 A2998 RMK A01 T02610027  RH  022%=      5-min Rain = 0
KSB1 260527Z 22004KT 26/03 A2998 RMK A01 T02580029  RH  023%=      5-min Rain = 0
KSB1 260528Z 20003KT 26/03 A2998 RMK A01 T02560028  RH  023%=      5-min Rain = 0
KSB1 260529Z 17002KT 26/03 A2998 RMK A01 T02550029  RH  023%=      5-min Rain = 0
KSB1 260530Z 12002KT 26/03 A2998 RMK A01 T02550033  RH  024%=      5-min Rain = 0
KSB1 260531Z 12004KT 26/04 A2998 RMK A01 T02550040  RH  025%=      5-min Rain = 0
KSB1 260532Z 13004KT 25/05 A2998 RMK A01 T02540045  RH  026%=      5-min Rain = 0
KSB1 260533Z 11004KT 26/05 A2998 RMK A01 T02550049  RH  027%=      5-min Rain = 0
KSB1 260534Z 09003KT 26/05 A2998 RMK A01 T02550050  RH  027%=      5-min Rain = 0
KSB1 260535Z 11003KT 26/05 A2998 RMK A01 T02550047  RH  026%=      5-min Rain = 0
KSB1 260536Z 11002KT 26/05 A2998 RMK A01 T02550048  RH  026%=      5-min Rain = 0
KSB1 260537Z 11002KT 26/05 A2998 RMK A01 T02550048  RH  026%=      5-min Rain = 0
KSB1 260538Z 12002KT 26/05 A2998 RMK A01 T02550048  RH  026%=      5-min Rain = 0
KSB1 260539Z 11002KT 25/05 A2998 RMK A01 T02540050  RH  027%=      5-min Rain = 0
KSB1 260540Z 11002KT 25/05 A2998 RMK A01 T02540052  RH  027%=      5-min Rain = 0
KSB1 260541Z 13002KT 25/05 A2998 RMK A01 T02540053  RH  027%=      5-min Rain = 0
KSB1 260542Z 11002KT 25/05 A2998 RMK A01 T02540053  RH  027%=      5-min Rain = 0
KSB1 260543Z 11003KT 25/05 A2998 RMK A01 T02540051  RH  027%=      5-min Rain = 0
KSB1 260544Z 11004KT 26/05 A2997 RMK A01 T02550051  RH  027%=      5-min Rain = 0
KSB1 260545Z 12004KT 26/06 A2997 RMK A01 T02550056  RH  028%=      5-min Rain = 0
KSB1 260546Z 11004KT 26/06 A2997 RMK A01 T02550057  RH  028%=      5-min Rain = 0
KSB1 260547Z 11004KT 26/06 A2997 RMK A01 T02560059  RH  028%=      5-min Rain = 0
KSB1 260548Z 10004KT 26/06 A2997 RMK A01 T02570062  RH  029%=      5-min Rain = 0
KSB1 260549Z 10004KT 26/06 A2997 RMK A01 T02560063  RH  029%=      5-min Rain = 0
KSB1 260550Z 10005KT 26/07 A2997 RMK A01 T02550066  RH  030%=      5-min Rain = 0
KSB1 260551Z 10005KT 25/07 A2997 RMK A01 T02530066  RH  030%=      5-min Rain = 0
KSB1 260552Z 09006KT 25/07 A2997 RMK A01 T02520066  RH  030%=      5-min Rain = 0
KSB1 260553Z 09006KT 25/06 A2997 RMK A01 T02500062  RH  030%=      5-min Rain = 0
KSB1 260554Z 09006KT 25/06 A2997 RMK A01 T02500059  RH  029%=      5-min Rain = 0
KSB1 260555Z 09005KT 25/06 A2997 RMK A01 T02490062  RH  030%=      5-min Rain = 0
KSB1 260556Z 09005KT 25/06 A2997 RMK A01 T02480062  RH  030%=      5-min Rain = 0
KSB1 260557Z 09005KT 25/06 A2996 RMK A01 T02470062  RH  030%=      5-min Rain = 0
KSB1 260558Z 10005KT 25/06 A2996 RMK A01 T02470061  RH  030%=      5-min Rain = 0
KSB1 260559Z 10005KT 25/06 A2996 RMK A01 T02470062  RH  030%=      5-min Rain = 0
KSB1 260600Z 09004KT 25/06 A2996 RMK A01 T02470061  RH  030%=      5-min Rain = 0
KSB1 260601Z 10004KT 25/06 A2996 RMK A01 T02470057  RH  030%=      5-min Rain = 0
KSB1 260602Z 10004KT 25/06 A2996 RMK A01 T02480057  RH  029%=      5-min Rain = 0
KSB1 260603Z 09004KT 25/06 A2996 RMK A01 T02480058  RH  029%=      5-min Rain = 0
KSB1 260604Z 09005KT 25/06 A2996 RMK A01 T02480058  RH  029%=      5-min Rain = 0
KSB1 260605Z 09005KT 25/06 A2996 RMK A01 T02490055  RH  029%=      5-min Rain = 0
KSB1 260606Z 10005KT 25/05 A2996 RMK A01 T02490054  RH  028%=      5-min Rain = 0
KSB1 260607Z 11006KT 25/05 A2996 RMK A01 T02490054  RH  028%=      5-min Rain = 0
KSB1 260608Z 11005KT 25/06 A2996 RMK A01 T02480057  RH  029%=      5-min Rain = 0
KSB1 260609Z 12005KT 25/06 A2996 RMK A01 T02470058  RH  030%=      5-min Rain = 0
KSB1 260610Z 12004KT 25/06 A2996 RMK A01 T02460062  RH  031%=      5-min Rain = 0
KSB1 260611Z 15003KT 24/07 A2996 RMK A01 T02430065  RH  032%=      5-min Rain = 0
KSB1 260612Z 20002KT 24/06 A2996 RMK A01 T02410064  RH  032%=      5-min Rain = 0
KSB1 260613Z 23003KT 24/07 A2996 RMK A01 T02390065  RH  033%=      5-min Rain = 0
KSB1 260614Z 24003KT 24/06 A2996 RMK A01 T02360063  RH  033%=      5-min Rain = 0
KSB1 260615Z 24003KT 23/06 A2996 RMK A01 T02330062  RH  033%=      5-min Rain = 0
KSB1 260616Z 21002KT 23/06 A2996 RMK A01 T02320062  RH  033%=      5-min Rain = 0
KSB1 260617Z 20002KT 23/06 A2996 RMK A01 T02310062  RH  034%=      5-min Rain = 0
KSB1 260618Z 21002KT 23/06 A2996 RMK A01 T02300061  RH  034%=      5-min Rain = 0
KSB1 260619Z 23003KT 23/06 A2996 RMK A01 T02310061  RH  033%=      5-min Rain = 0
KSB1 260620Z 26005KT 23/06 A2997 RMK A01 T02310060  RH  033%=      5-min Rain = 0
KSB1 260621Z 28010KT 23/06 A2997 RMK A01 T02320059  RH  033%=      5-min Rain = 0
KSB1 260622Z 29015KT 23/06 A2997 RMK A01 T02320056  RH  032%=      5-min Rain = 0
KSB1 260623Z 28013KT 23/06 A2997 RMK A01 T02330056  RH  032%=      5-min Rain = 0
KSB1 260624Z 27012KT 24/06 A2997 RMK A01 T02360055  RH  031%=      5-min Rain = 0
KSB1 260625Z 26010KT 24/06 A2997 RMK A01 T02400055  RH  030%=      5-min Rain = 0
KSB1 260626Z 26009KT 24/05 A2997 RMK A01 T02410053  RH  030%=      5-min Rain = 0
KSB1 260627Z 25008KT 24/05 A2997 RMK A01 T02410050  RH  029%=      5-min Rain = 0
KSB1 260628Z 24007KT 24/05 A2997 RMK A01 T02420048  RH  029%=      5-min Rain = 0
KSB1 260629Z 22007KT 24/05 A2997 RMK A01 T02420048  RH  028%=      5-min Rain = 0
KSB1 260630Z 22006KT 24/05 A2997 RMK A01 T02420048  RH  029%=      5-min Rain = 0
KSB1 260631Z 22005KT 24/05 A2997 RMK A01 T02410048  RH  029%=      5-min Rain = 0
KSB1 260632Z 23006KT 24/05 A2997 RMK A01 T02400046  RH  028%=      5-min Rain = 0
KSB1 260633Z 25005KT 24/05 A2997 RMK A01 T02400046  RH  028%=      5-min Rain = 0
KSB1 260634Z 26006KT 24/04 A2998 RMK A01 T02400044  RH  028%=      5-min Rain = 0
KSB1 260635Z 26006KT 24/04 A2998 RMK A01 T02390042  RH  028%=      5-min Rain = 0
KSB1 260636Z 26006KT 24/04 A2998 RMK A01 T02390041  RH  027%=      5-min Rain = 0
KSB1 260637Z 28006KT 24/04 A2998 RMK A01 T02400037  RH  027%=      5-min Rain = 0
KSB1 260638Z 28008KT 24/04 A2998 RMK A01 T02420036  RH  026%=      5-min Rain = 0
KSB1 260639Z 26010KT 25/03 A2998 RMK A01 T02450028  RH  024%=      5-min Rain = 0
KSB1 260640Z 26009KT 25/02 A2998 RMK A01 T02490023  RH  023%=      5-min Rain = 0
KSB1 260641Z 27010KT 25/02 A2998 RMK A01 T02510017  RH  022%=      5-min Rain = 0
KSB1 260642Z 28009KT 25/01 A2998 RMK A01 T02530010  RH  020%=      5-min Rain = 0
KSB1 260643Z 29008KT 25/01 A2998 RMK A01 T02540007  RH  020%=      5-min Rain = 0
KSB1 260644Z 30006KT 26/01 A2998 RMK A01 T02550007  RH  020%=      5-min Rain = 0
KSB1 260645Z 29008KT 26/01 A2998 RMK A01 T02550006  RH  020%=      5-min Rain = 0
KSB1 260646Z 31009KT 26/00 A2998 RMK A01 T02570002  RH  019%=      5-min Rain = 0
KSB1 260647Z 30007KT 26/M00 A2998 RMK A01 T02611001  RH  018%=      5-min Rain = 0
KSB1 260648Z 29006KT 26/00 A2998 RMK A01 T02610000  RH  018%=      5-min Rain = 0
KSB1 260649Z 31008KT 26/M00 A2998 RMK A01 T02611001  RH  018%=      5-min Rain = 0
KSB1 260650Z 30009KT 26/M01 A2998 RMK A01 T02611008  RH  017%=      5-min Rain = 0
KSB1 260651Z 31006KT 26/M01 A2998 RMK A01 T02621008  RH  017%=      5-min Rain = 0
KSB1 260652Z 30007KT 26/M01 A2998 RMK A01 T02621008  RH  017%=      5-min Rain = 0
KSB1 260653Z 31007KT 26/M01 A2997 RMK A01 T02621010  RH  017%=      5-min Rain = 0
KSB1 260654Z 30007KT 26/M01 A2997 RMK A01 T02611011  RH  017%=      5-min Rain = 0
KSB1 260655Z 31010KT 26/M01 A2997 RMK A01 T02601014  RH  016%=      5-min Rain = 0
KSB1 260656Z 30009KT 26/M02 A2997 RMK A01 T02601016  RH  016%=      5-min Rain = 0
KSB1 260657Z 30012KT 26/M02 A2997 RMK A01 T02601016  RH  016%=      5-min Rain = 0
KSB1 260658Z 31011KT 26/M02 A2997 RMK A01 T02601016  RH  016%=      5-min Rain = 0
KSB1 260659Z 30012KT 26/M02 A2997 RMK A01 T02601018  RH  016%=      5-min Rain = 0
KSB1 260700Z 30011KT 26/M02 A2997 RMK A01 T02601019  RH  016%=      5-min Rain = 0
KSB1 260701Z 30015KT 26/M02 A2997 RMK A01 T02611019  RH  016%=      5-min Rain = 0
KSB1 260702Z 30012KT 26/M02 A2997 RMK A01 T02611020  RH  016%=      5-min Rain = 0
KSB1 260703Z 30013KT 26/M02 A2997 RMK A01 T02621020  RH  016%=      5-min Rain = 0
KSB1 260704Z 30014KT 26/M02 A2997 RMK A01 T02611021  RH  016%=      5-min Rain = 0
KSB1 260705Z 30016KT 26/M02 A2997 RMK A01 T02611022  RH  015%=      5-min Rain = 0
KSB1 260706Z 30013KT 26/M02 A2997 RMK A01 T02621021  RH  015%=      5-min Rain = 0
KSB1 260707Z 30015KT 26/M02 A2997 RMK A01 T02611021  RH  015%=      5-min Rain = 0
KSB1 260708Z 30015KT 26/M02 A2997 RMK A01 T02611021  RH  015%=      5-min Rain = 0
KSB1 260709Z 30016KT 26/M02 A2997 RMK A01 T02601022  RH  015%=      5-min Rain = 0
KSB1 260710Z 30016KT 26/M02 A2997 RMK A01 T02611022  RH  015%=      5-min Rain = 0
KSB1 260711Z 30014KT 26/M02 A2997 RMK A01 T02611022  RH  015%=      5-min Rain = 0
KSB1 260712Z 30015KT 26/M02 A2998 RMK A01 T02611022  RH  015%=      5-min Rain = 0
KSB1 260713Z 30015KT 26/M02 A2997 RMK A01 T02611022  RH  015%=      5-min Rain = 0
KSB1 260714Z 30016KT 26/M02 A2997 RMK A01 T02601022  RH  015%=      5-min Rain = 0
KSB1 260715Z 30015KT 26/M02 A2997 RMK A01 T02611022  RH  015%=      5-min Rain = 0
KSB1 260716Z 30015KT 26/M02 A2997 RMK A01 T02611023  RH  015%=      5-min Rain = 0
KSB1 260717Z 30015KT 26/M02 A2997 RMK A01 T02601022  RH  015%=      5-min Rain = 0
KSB1 260718Z 30014KT 26/M02 A2997 RMK A01 T02601022  RH  015%=      5-min Rain = 0
KSB1 260719Z 31014KT 26/M02 A2997 RMK A01 T02601022  RH  015%=      5-min Rain = 0
KSB1 260720Z 31014KT 26/M02 A2997 RMK A01 T02601022  RH  015%=      5-min Rain = 0
KSB1 260721Z 32011KT 26/M02 A2997 RMK A01 T02601022  RH  015%=      5-min Rain = 0
KSB1 260722Z 32010KT 26/M02 A2998 RMK A01 T02601022  RH  016%=      5-min Rain = 0
KSB1 260723Z 33007KT 26/M02 A2998 RMK A01 T02581020  RH  016%=      5-min Rain = 0
KSB1 260724Z 34008KT 25/M02 A2998 RMK A01 T02541018  RH  017%=      5-min Rain = 0
KSB1 260725Z 34008KT 25/M02 A2998 RMK A01 T02491017  RH  017%=      5-min Rain = 0
KSB1 260726Z 33008KT 25/M02 A2998 RMK A01 T02461017  RH  018%=      5-min Rain = 0
KSB1 260727Z 33008KT 24/M02 A2998 RMK A01 T02431016  RH  018%=      5-min Rain = 0
KSB1 260728Z 32008KT 24/M02 A2998 RMK A01 T02411016  RH  018%=      5-min Rain = 0
KSB1 260729Z 32010KT 24/M02 A2997 RMK A01 T02401017  RH  018%=      5-min Rain = 0
KSB1 260730Z 32009KT 24/M02 A2998 RMK A01 T02411018  RH  018%=      5-min Rain = 0
KSB1 260731Z 32010KT 24/M02 A2998 RMK A01 T02431019  RH  018%=      5-min Rain = 0
KSB1 260732Z 32008KT 24/M02 A2998 RMK A01 T02441018  RH  017%=      5-min Rain = 0
KSB1 260733Z 32008KT 25/M02 A2998 RMK A01 T02451018  RH  018%=      5-min Rain = 0
KSB1 260734Z 32007KT 24/M02 A2998 RMK A01 T02441018  RH  017%=      5-min Rain = 0
KSB1 260735Z 33006KT 25/M02 A2998 RMK A01 T02451017  RH  018%=      5-min Rain = 0
KSB1 260736Z 32006KT 24/M01 A2998 RMK A01 T02421014  RH  018%=      5-min Rain = 0
KSB1 260737Z 32006KT 24/M01 A2998 RMK A01 T02391014  RH  019%=      5-min Rain = 0
KSB1 260738Z 32005KT 24/M01 A2998 RMK A01 T02361012  RH  019%=      5-min Rain = 0
KSB1 260739Z 33006KT 23/M01 A2998 RMK A01 T02341013  RH  019%=      5-min Rain = 0
KSB1 260740Z 34005KT 23/M01 A2998 RMK A01 T02331013  RH  019%=      5-min Rain = 0
KSB1 260741Z 00005KT 23/M01 A2998 RMK A01 T02321012  RH  020%=      5-min Rain = 0
KSB1 260742Z 03006KT 23/M01 A2998 RMK A01 T02281010  RH  020%=      5-min Rain = 0
KSB1 260743Z 05006KT 22/M01 A2998 RMK A01 T02241008  RH  021%=      5-min Rain = 0
KSB1 260744Z 05006KT 22/M01 A2998 RMK A01 T02201006  RH  022%=      5-min Rain = 0
KSB1 260745Z 04007KT 22/M01 A2999 RMK A01 T02171006  RH  023%=      5-min Rain = 0
KSB1 260746Z 03008KT 22/M01 A2999 RMK A01 T02161005  RH  023%=      5-min Rain = 0
KSB1 260747Z 03008KT 22/M01 A2999 RMK A01 T02181006  RH  022%=      5-min Rain = 0
KSB1 260748Z 03007KT 22/M01 A2999 RMK A01 T02191006  RH  022%=      5-min Rain = 0
KSB1 260749Z 03006KT 22/M01 A2999 RMK A01 T02221008  RH  022%=      5-min Rain = 0
KSB1 260750Z 02006KT 23/M01 A2999 RMK A01 T02251007  RH  021%=      5-min Rain = 0
KSB1 260751Z 02006KT 23/M01 A2999 RMK A01 T02251007  RH  021%=      5-min Rain = 0
KSB1 260752Z 01006KT 23/M01 A2998 RMK A01 T02261006  RH  021%=      5-min Rain = 0
KSB1 260753Z 01007KT 23/M01 A2998 RMK A01 T02261007  RH  021%=      5-min Rain = 0
KSB1 260754Z 01007KT 23/M01 A2998 RMK A01 T02271007  RH  021%=      5-min Rain = 0
KSB1 260755Z 01006KT 23/M01 A2998 RMK A01 T02271006  RH  021%=      5-min Rain = 0
KSB1 260756Z 02007KT 23/M01 A2998 RMK A01 T02271006  RH  021%=      5-min Rain = 0
KSB1 260757Z 01006KT 23/M01 A2998 RMK A01 T02251006  RH  021%=      5-min Rain = 0
KSB1 260758Z 01006KT 22/M01 A2998 RMK A01 T02241006  RH  022%=      5-min Rain = 0
KSB1 260759Z 36006KT 22/M01 A2998 RMK A01 T02231007  RH  022%=      5-min Rain = 0
KSB1 260800Z 35005KT 23/M01 A2998 RMK A01 T02251008  RH  021%=      5-min Rain = 0
KSB1 260801Z 33007KT 23/M01 A2998 RMK A01 T02271008  RH  021%=      5-min Rain = 0
KSB1 260802Z 34006KT 23/M01 A2998 RMK A01 T02271009  RH  021%=      5-min Rain = 0
KSB1 260803Z 34006KT 23/M01 A2998 RMK A01 T02291009  RH  021%=      5-min Rain = 0
KSB1 260804Z 34007KT 23/M01 A2998 RMK A01 T02311009  RH  020%=      5-min Rain = 0
KSB1 260805Z 34007KT 23/M01 A2998 RMK A01 T02321008  RH  020%=      5-min Rain = 0
KSB1 260806Z 34007KT 23/M01 A2998 RMK A01 T02331008  RH  020%=      5-min Rain = 0
KSB1 260807Z 34007KT 23/M01 A2998 RMK A01 T02341008  RH  020%=      5-min Rain = 0
KSB1 260808Z 33007KT 24/M01 A2998 RMK A01 T02351008  RH  020%=      5-min Rain = 0
KSB1 260809Z 33007KT 24/M01 A2998 RMK A01 T02351007  RH  020%=      5-min Rain = 0
KSB1 260810Z 33008KT 24/M01 A2998 RMK A01 T02351007  RH  020%=      5-min Rain = 0
KSB1 260811Z 33007KT 24/M01 A2998 RMK A01 T02361007  RH  020%=      5-min Rain = 0
KSB1 260812Z 33007KT 24/M01 A2998 RMK A01 T02371007  RH  020%=      5-min Rain = 0
KSB1 260813Z 33007KT 24/M01 A2998 RMK A01 T02371007  RH  020%=      5-min Rain = 0
KSB1 260814Z 33007KT 24/M01 A2998 RMK A01 T02371007  RH  020%=      5-min Rain = 0
KSB1 260815Z 33007KT 24/M01 A2998 RMK A01 T02371007  RH  020%=      5-min Rain = 0
KSB1 260816Z 33007KT 24/M01 A2998 RMK A01 T02371008  RH  020%=      5-min Rain = 0
KSB1 260817Z 33006KT 24/M01 A2998 RMK A01 T02371008  RH  020%=      5-min Rain = 0
KSB1 260818Z 33006KT 24/M01 A2998 RMK A01 T02371008  RH  020%=      5-min Rain = 0
KSB1 260819Z 33006KT 24/M01 A2998 RMK A01 T02361008  RH  020%=      5-min Rain = 0
KSB1 260820Z 34006KT 24/M01 A2998 RMK A01 T02371008  RH  020%=      5-min Rain = 0
KSB1 260821Z 34007KT 24/M01 A2998 RMK A01 T02361008  RH  020%=      5-min Rain = 0
KSB1 260822Z 35007KT 23/M01 A2998 RMK A01 T02341007  RH  020%=      5-min Rain = 0
KSB1 260823Z 35006KT 23/M01 A2998 RMK A01 T02321006  RH  021%=      5-min Rain = 0
KSB1 260824Z 36006KT 23/M01 A2998 RMK A01 T02301005  RH  021%=      5-min Rain = 0
KSB1 260825Z 00006KT 23/M01 A2998 RMK A01 T02271005  RH  021%=      5-min Rain = 0
KSB1 260826Z 00006KT 22/M01 A2998 RMK A01 T02241005  RH  022%=      5-min Rain = 0
KSB1 260827Z 00005KT 22/M01 A2998 RMK A01 T02221005  RH  022%=      5-min Rain = 0
KSB1 260828Z 01004KT 22/M01 A2998 RMK A01 T02211005  RH  022%=      5-min Rain = 0
KSB1 260829Z 02003KT 22/M01 A2998 RMK A01 T02201005  RH  022%=      5-min Rain = 0
KSB1 260830Z 03003KT 22/M01 A2998 RMK A01 T02191005  RH  022%=      5-min Rain = 0
KSB1 260831Z 06002KT 22/M00 A2999 RMK A01 T02191004  RH  023%=      5-min Rain = 0
KSB1 260832Z 05002KT 22/M01 A2999 RMK A01 T02181005  RH  023%=      5-min Rain = 0
KSB1 260833Z 06003KT 22/M01 A2999 RMK A01 T02181005  RH  023%=      5-min Rain = 0
KSB1 260834Z 10003KT 22/M01 A2999 RMK A01 T02171005  RH  023%=      5-min Rain = 0
KSB1 260835Z 10002KT 22/M00 A2999 RMK A01 T02161004  RH  023%=      5-min Rain = 0
KSB1 260836Z 11001KT 22/M00 A2999 RMK A01 T02161002  RH  023%=      5-min Rain = 0
KSB1 260837Z 11002KT 22/M00 A2999 RMK A01 T02151001  RH  024%=      5-min Rain = 0
KSB1 260838Z 05002KT 21/M00 A2999 RMK A01 T02141001  RH  024%=      5-min Rain = 0
KSB1 260839Z 05000KT 21/M00 A2999 RMK A01 T02131001  RH  024%=      5-min Rain = 0
KSB1 260840Z 07000KT 21/00 A2999 RMK A01 T021300-0  RH  024%=      5-min Rain = 0
KSB1 260841Z 03001KT 21/M00 A2999 RMK A01 T02141001  RH  024%=      5-min Rain = 0
KSB1 260842Z 02001KT 21/M00 A2999 RMK A01 T02141003  RH  023%=      5-min Rain = 0
KSB1 260843Z 05002KT 22/M01 A2999 RMK A01 T02151005  RH  023%=      5-min Rain = 0
KSB1 260844Z 04001KT 22/M01 A2999 RMK A01 T02171005  RH  023%=      5-min Rain = 0
KSB1 260845Z 03001KT 22/M01 A2999 RMK A01 T02181005  RH  023%=      5-min Rain = 0
KSB1 260846Z 34000KT 22/M01 A2999 RMK A01 T02191005  RH  022%=      5-min Rain = 0
KSB1 260847Z 34001KT 22/M01 A2999 RMK A01 T02201005  RH  022%=      5-min Rain = 0
KSB1 260848Z 36001KT 22/M00 A2999 RMK A01 T02211001  RH  023%=      5-min Rain = 0
KSB1 260849Z 01001KT 22/01 A2999 RMK A01 T02230006  RH  024%=      5-min Rain = 0
KSB1 260850Z 30001KT 23/M00 A2999 RMK A01 T02251001  RH  022%=      5-min Rain = 0
KSB1 260851Z 32001KT 23/01 A2999 RMK A01 T02260008  RH  024%=      5-min Rain = 0
KSB1 260852Z 32002KT 23/01 A2999 RMK A01 T02270007  RH  023%=      5-min Rain = 0
KSB1 260853Z 32001KT 23/00 A2998 RMK A01 T02280000  RH  022%=      5-min Rain = 0
KSB1 260854Z 32001KT 23/01 A2998 RMK A01 T02290006  RH  023%=      5-min Rain = 0
KSB1 260855Z 35001KT 23/02 A2998 RMK A01 T02300019  RH  025%=      5-min Rain = 0
KSB1 260856Z 32001KT 23/02 A2998 RMK A01 T02310023  RH  025%=      5-min Rain = 0
KSB1 260857Z 31001KT 23/02 A2998 RMK A01 T02320023  RH  025%=      5-min Rain = 0
KSB1 260858Z 33001KT 23/01 A2998 RMK A01 T02280010  RH  024%=      5-min Rain = 0
KSB1 260859Z 30001KT 22/01 A2998 RMK A01 T02240012  RH  025%=      5-min Rain = 0
KSB1 260900Z 34001KT 22/02 A2998 RMK A01 T02240020  RH  026%=      5-min Rain = 0
KSB1 260901Z 35000KT 22/02 A2998 RMK A01 T02240018  RH  026%=      5-min Rain = 0
KSB1 260902Z 08000KT 22/02 A2998 RMK A01 T02240024  RH  027%=      5-min Rain = 0
KSB1 260903Z 06000KT 23/02 A2998 RMK A01 T02250022  RH  026%=      5-min Rain = 0
KSB1 260904Z 04000KT 23/01 A2999 RMK A01 T02250009  RH  024%=      5-min Rain = 0
KSB1 260905Z 00000KT 22/01 A2999 RMK A01 T02230007  RH  024%=      5-min Rain = 0
KSB1 260906Z 24000KT 22/01 A2999 RMK A01 T02220005  RH  024%=      5-min Rain = 0
KSB1 260907Z 22001KT 22/01 A2999 RMK A01 T02210007  RH  024%=      5-min Rain = 0
KSB1 260908Z 23001KT 22/00 A2999 RMK A01 T02220004  RH  024%=      5-min Rain = 0
KSB1 260909Z 23000KT 22/01 A2999 RMK A01 T02230009  RH  024%=      5-min Rain = 0
KSB1 260910Z 12000KT 22/02 A2999 RMK A01 T02240016  RH  025%=      5-min Rain = 0
KSB1 260911Z 10001KT 22/02 A2999 RMK A01 T02240024  RH  027%=      5-min Rain = 0
KSB1 260912Z 10001KT 22/03 A2999 RMK A01 T02240028  RH  027%=      5-min Rain = 0
KSB1 260913Z 11002KT 22/03 A2999 RMK A01 T02240030  RH  028%=      5-min Rain = 0
KSB1 260914Z 11003KT 22/04 A2999 RMK A01 T02240037  RH  029%=      5-min Rain = 0
KSB1 260915Z 12003KT 23/04 A2999 RMK A01 T02250037  RH  029%=      5-min Rain = 0
KSB1 260916Z 13002KT 23/03 A2999 RMK A01 T02250033  RH  029%=      5-min Rain = 0
KSB1 260917Z 14001KT 22/03 A2999 RMK A01 T02240031  RH  028%=      5-min Rain = 0
KSB1 260918Z 18002KT 22/03 A2999 RMK A01 T02240032  RH  029%=      5-min Rain = 0
KSB1 260919Z 19002KT 22/03 A2999 RMK A01 T02220027  RH  028%=      5-min Rain = 0
KSB1 260920Z 21002KT 22/02 A2999 RMK A01 T02160019  RH  027%=      5-min Rain = 0
KSB1 260921Z 24003KT 21/01 A2999 RMK A01 T02120010  RH  026%=      5-min Rain = 0
KSB1 260922Z 23003KT 21/00 A2999 RMK A01 T02090002  RH  025%=      5-min Rain = 0
KSB1 260923Z 22002KT 21/01 A2999 RMK A01 T02090008  RH  026%=      5-min Rain = 0
KSB1 260924Z 21002KT 21/01 A2999 RMK A01 T02090013  RH  027%=      5-min Rain = 0
KSB1 260925Z 21002KT 21/02 A2999 RMK A01 T02100017  RH  028%=      5-min Rain = 0
KSB1 260926Z 22002KT 21/02 A2999 RMK A01 T02100020  RH  028%=      5-min Rain = 0
KSB1 260927Z 23002KT 21/02 A2999 RMK A01 T02110023  RH  029%=      5-min Rain = 0
KSB1 260928Z 24003KT 21/03 A2999 RMK A01 T02120031  RH  030%=      5-min Rain = 0
KSB1 260929Z 24002KT 21/03 A2999 RMK A01 T02130032  RH  030%=      5-min Rain = 0
KSB1 260930Z 25002KT 21/03 A2999 RMK A01 T02130030  RH  030%=      5-min Rain = 0
KSB1 260931Z 25002KT 21/03 A2999 RMK A01 T02140030  RH  030%=      5-min Rain = 0
KSB1 260932Z 25002KT 21/03 A2999 RMK A01 T02140032  RH  030%=      5-min Rain = 0
KSB1 260933Z 25003KT 22/04 A2999 RMK A01 T02150036  RH  031%=      5-min Rain = 0
KSB1 260934Z 25003KT 22/04 A2999 RMK A01 T02150039  RH  032%=      5-min Rain = 0
KSB1 260935Z 24003KT 22/05 A2999 RMK A01 T02150046  RH  033%=      5-min Rain = 0
KSB1 260936Z 24002KT 22/05 A2999 RMK A01 T02150052  RH  034%=      5-min Rain = 0
KSB1 260937Z 24002KT 22/06 A30 RMK A01 T02160062  RH  037%=      5-min Rain = 0
KSB1 260938Z 22002KT 22/07 A30 RMK A01 T02160066  RH  038%=      5-min Rain = 0
KSB1 260939Z 19002KT 22/08 A30 RMK A01 T02160083  RH  043%=      5-min Rain = 0
KSB1 260940Z 21002KT 22/09 A30 RMK A01 T02160090  RH  045%=      5-min Rain = 0
KSB1 260941Z 20002KT 22/08 A30 RMK A01 T02160079  RH  041%=      5-min Rain = 0
KSB1 260942Z 20002KT 22/08 A30 RMK A01 T02160083  RH  042%=      5-min Rain = 0
KSB1 260943Z 21001KT 22/09 A30 RMK A01 T02170092  RH  045%=      5-min Rain = 0
KSB1 260944Z 24001KT 22/10 A30 RMK A01 T02180095  RH  046%=      5-min Rain = 0
KSB1 260945Z 23002KT 22/09 A30 RMK A01 T02180091  RH  044%=      5-min Rain = 0
KSB1 260946Z 22001KT 22/09 A30 RMK A01 T02180094  RH  045%=      5-min Rain = 0
KSB1 260947Z 23001KT 22/10 A30 RMK A01 T02180100  RH  047%=      5-min Rain = 0
KSB1 260948Z 22001KT 22/10 A30 RMK A01 T02180101  RH  047%=      5-min Rain = 0
KSB1 260949Z 17000KT 22/11 A30 RMK A01 T02170106  RH  049%=      5-min Rain = 0
KSB1 260950Z 21001KT 22/11 A30 RMK A01 T02170106  RH  049%=      5-min Rain = 0
KSB1 260951Z 19001KT 22/11 A30 RMK A01 T02170108  RH  050%=      5-min Rain = 0
KSB1 260952Z 19001KT 22/11 A30 RMK A01 T02170107  RH  049%=      5-min Rain = 0
KSB1 260953Z 18001KT 22/10 A30 RMK A01 T02150099  RH  047%=      5-min Rain = 0
KSB1 260954Z 16001KT 21/10 A30 RMK A01 T02140101  RH  048%=      5-min Rain = 0
KSB1 260955Z 16001KT 21/10 A30 RMK A01 T02130103  RH  049%=      5-min Rain = 0
KSB1 260956Z 17001KT 21/11 A30 RMK A01 T02130107  RH  051%=      5-min Rain = 0
KSB1 260957Z 16001KT 21/11 A30 RMK A01 T02120110  RH  052%=      5-min Rain = 0
KSB1 260958Z 15001KT 21/11 A30 RMK A01 T02130113  RH  053%=      5-min Rain = 0
KSB1 260959Z 15001KT 21/11 A30 RMK A01 T02130114  RH  053%=      5-min Rain = 0
KSB1 261000Z 14000KT 21/12 A30 RMK A01 T02130116  RH  054%=      5-min Rain = 0
KSB1 261001Z 14001KT 21/12 A30 RMK A01 T02130120  RH  055%=      5-min Rain = 0
KSB1 261002Z 14000KT 21/12 A30 RMK A01 T02130121  RH  055%=      5-min Rain = 0
KSB1 261003Z 14000KT 21/12 A30 RMK A01 T02140121  RH  055%=      5-min Rain = 0
KSB1 261004Z 00000KT 21/12 A30 RMK A01 T02140121  RH  056%=      5-min Rain = 0
KSB1 261005Z 00000KT 21/12 A30 RMK A01 T02140123  RH  056%=      5-min Rain = 0
KSB1 261006Z 00000KT 21/13 A30 RMK A01 T02130126  RH  057%=      5-min Rain = 0
KSB1 261007Z 00000KT 21/13 A30 RMK A01 T02130129  RH  059%=      5-min Rain = 0
KSB1 261008Z 00000KT 21/13 A30 RMK A01 T02140130  RH  059%=      5-min Rain = 0
KSB1 261009Z 00000KT 21/13 A30 RMK A01 T02140132  RH  059%=      5-min Rain = 0
KSB1 261010Z 00000KT 21/13 A30 RMK A01 T02140133  RH  060%=      5-min Rain = 0
KSB1 261011Z 00000KT 21/13 A30 RMK A01 T02140134  RH  060%=      5-min Rain = 0
KSB1 261012Z 14000KT 21/14 A30 RMK A01 T02140135  RH  060%=      5-min Rain = 0
KSB1 261013Z 14001KT 21/13 A30 RMK A01 T02140134  RH  061%=      5-min Rain = 0
KSB1 261014Z 14001KT 21/14 A30 RMK A01 T02140135  RH  061%=      5-min Rain = 0
KSB1 261015Z 14001KT 21/13 A30 RMK A01 T02140134  RH  061%=      5-min Rain = 0
KSB1 261016Z 15001KT 21/13 A30 RMK A01 T02130134  RH  061%=      5-min Rain = 0
KSB1 261017Z 16001KT 21/13 A30 RMK A01 T02130134  RH  061%=      5-min Rain = 0
KSB1 261018Z 16002KT 21/13 A30 RMK A01 T02130132  RH  060%=      5-min Rain = 0
KSB1 261019Z 16002KT 21/13 A30 RMK A01 T02120129  RH  059%=      5-min Rain = 0
KSB1 261020Z 16001KT 21/13 A30 RMK A01 T02120128  RH  059%=      5-min Rain = 0
KSB1 261021Z 16001KT 21/13 A30 RMK A01 T02110128  RH  059%=      5-min Rain = 0
KSB1 261022Z 15002KT 21/13 A30 RMK A01 T02100128  RH  059%=      5-min Rain = 0
KSB1 261023Z 15002KT 21/13 A30 RMK A01 T02090130  RH  060%=      5-min Rain = 0
KSB1 261024Z 15002KT 21/13 A30 RMK A01 T02090130  RH  061%=      5-min Rain = 0
KSB1 261025Z 15002KT 21/13 A30 RMK A01 T02090131  RH  061%=      5-min Rain = 0
KSB1 261026Z 16001KT 21/13 A3001 RMK A01 T02090130  RH  060%=      5-min Rain = 0
KSB1 261027Z 16001KT 21/13 A3001 RMK A01 T02090130  RH  061%=      5-min Rain = 0
KSB1 261028Z 16001KT 21/13 A3001 RMK A01 T02090131  RH  061%=      5-min Rain = 0
KSB1 261029Z 16001KT 21/13 A30 RMK A01 T02090131  RH  061%=      5-min Rain = 0
KSB1 261030Z 16001KT 21/13 A30 RMK A01 T02080132  RH  061%=      5-min Rain = 0
KSB1 261031Z 16001KT 21/13 A30 RMK A01 T02090132  RH  062%=      5-min Rain = 0
KSB1 261032Z 16001KT 21/13 A30 RMK A01 T02090133  RH  062%=      5-min Rain = 0
KSB1 261033Z 16001KT 21/13 A30 RMK A01 T02090134  RH  062%=      5-min Rain = 0
KSB1 261034Z 16000KT 21/14 A30 RMK A01 T02090135  RH  063%=      5-min Rain = 0
KSB1 261035Z 26001KT 21/14 A30 RMK A01 T02090136  RH  063%=      5-min Rain = 0
KSB1 261036Z 26002KT 21/13 A30 RMK A01 T02090134  RH  062%=      5-min Rain = 0
KSB1 261037Z 27002KT 21/13 A30 RMK A01 T02080132  RH  062%=      5-min Rain = 0
KSB1 261038Z 28002KT 21/13 A30 RMK A01 T02060133  RH  063%=      5-min Rain = 0
KSB1 261039Z 28002KT 21/14 A30 RMK A01 T02050135  RH  064%=      5-min Rain = 0
KSB1 261040Z 28002KT 21/14 A30 RMK A01 T02060137  RH  065%=      5-min Rain = 0
KSB1 261041Z 27002KT 21/14 A30 RMK A01 T02060137  RH  065%=      5-min Rain = 0
KSB1 261042Z 27003KT 21/14 A30 RMK A01 T02060137  RH  065%=      5-min Rain = 0
KSB1 261043Z 27002KT 21/14 A30 RMK A01 T02050138  RH  065%=      5-min Rain = 0
KSB1 261044Z 28003KT 21/14 A30 RMK A01 T02050139  RH  065%=      5-min Rain = 0
KSB1 261045Z 28003KT 21/14 A30 RMK A01 T02050140  RH  066%=      5-min Rain = 0
KSB1 261046Z 28003KT 21/14 A30 RMK A01 T02050140  RH  066%=      5-min Rain = 0
KSB1 261047Z 29003KT 21/14 A30 RMK A01 T02050141  RH  067%=      5-min Rain = 0
KSB1 261048Z 29003KT 21/14 A30 RMK A01 T02050142  RH  067%=      5-min Rain = 0
KSB1 261049Z 29001KT 21/14 A30 RMK A01 T02050143  RH  067%=      5-min Rain = 0
KSB1 261050Z 30001KT 21/14 A30 RMK A01 T02060144  RH  067%=      5-min Rain = 0
KSB1 261051Z 30001KT 21/15 A30 RMK A01 T02080145  RH  067%=      5-min Rain = 0
KSB1 261052Z 30000KT 21/15 A30 RMK A01 T02090145  RH  067%=      5-min Rain = 0
KSB1 261053Z 00000KT 21/15 A3001 RMK A01 T02110146  RH  066%=      5-min Rain = 0
KSB1 261054Z 25001KT 21/14 A3001 RMK A01 T02120143  RH  065%=      5-min Rain = 0
KSB1 261055Z 25002KT 21/14 A3001 RMK A01 T02100142  RH  065%=      5-min Rain = 0
KSB1 261056Z 26001KT 21/14 A3001 RMK A01 T02090144  RH  067%=      5-min Rain = 0
KSB1 261057Z 26000KT 21/14 A30 RMK A01 T02090144  RH  066%=      5-min Rain = 0
KSB1 261058Z 26000KT 21/14 A30 RMK A01 T02100144  RH  066%=      5-min Rain = 0
KSB1 261059Z 00000KT 21/15 A30 RMK A01 T02100145  RH  066%=      5-min Rain = 0
KSB1 261100Z 00000KT 21/14 A30 RMK A01 T02110144  RH  066%=      5-min Rain = 0
KSB1 261101Z 00000KT 21/14 A30 RMK A01 T02100141  RH  064%=      5-min Rain = 0
KSB1 261102Z 00000KT 21/14 A30 RMK A01 T02090144  RH  066%=      5-min Rain = 0
KSB1 261103Z 00000KT 21/15 A30 RMK A01 T02090145  RH  067%=      5-min Rain = 0
KSB1 261104Z 00000KT 21/15 A30 RMK A01 T02090145  RH  067%=      5-min Rain = 0
KSB1 261105Z 00000KT 21/15 A30 RMK A01 T02090145  RH  067%=      5-min Rain = 0
KSB1 261106Z 36001KT 21/14 A30 RMK A01 T02100142  RH  065%=      5-min Rain = 0
KSB1 261107Z 36001KT 21/14 A30 RMK A01 T02090139  RH  064%=      5-min Rain = 0
KSB1 261108Z 34001KT 21/13 A30 RMK A01 T02070133  RH  062%=      5-min Rain = 0
KSB1 261109Z 34001KT 21/12 A30 RMK A01 T02060123  RH  059%=      5-min Rain = 0
KSB1 261110Z 34002KT 21/12 A30 RMK A01 T02050124  RH  060%=      5-min Rain = 0
KSB1 261111Z 34002KT 21/12 A30 RMK A01 T02050116  RH  056%=      5-min Rain = 0
KSB1 261112Z 34002KT 21/10 A30 RMK A01 T02060102  RH  051%=      5-min Rain = 0
KSB1 261113Z 33003KT 21/09 A30 RMK A01 T02080093  RH  048%=      5-min Rain = 0
KSB1 261114Z 33003KT 21/08 A30 RMK A01 T02100084  RH  044%=      5-min Rain = 0
KSB1 261115Z 33004KT 21/07 A30 RMK A01 T02120067  RH  039%=      5-min Rain = 0
KSB1 261116Z 33004KT 22/06 A30 RMK A01 T02150061  RH  037%=      5-min Rain = 0
KSB1 261117Z 33004KT 22/05 A30 RMK A01 T02170049  RH  033%=      5-min Rain = 0
KSB1 261118Z 32004KT 22/05 A30 RMK A01 T02200046  RH  032%=      5-min Rain = 0
KSB1 261119Z 31004KT 22/04 A30 RMK A01 T02230043  RH  031%=      5-min Rain = 0
KSB1 261120Z 30005KT 22/02 A30 RMK A01 T02230022  RH  027%=      5-min Rain = 0
KSB1 261121Z 30005KT 22/01 A30 RMK A01 T02240008  RH  024%=      5-min Rain = 0
KSB1 261122Z 30005KT 23/00 A30 RMK A01 T02250003  RH  023%=      5-min Rain = 0
KSB1 261123Z 30005KT 23/00 A30 RMK A01 T02250001  RH  023%=      5-min Rain = 0
KSB1 261124Z 31004KT 23/00 A30 RMK A01 T02250002  RH  023%=      5-min Rain = 0
KSB1 261125Z 32004KT 23/01 A30 RMK A01 T02250005  RH  023%=      5-min Rain = 0
KSB1 261126Z 32004KT 23/02 A30 RMK A01 T02250015  RH  025%=      5-min Rain = 0
KSB1 261127Z 33004KT 23/03 A30 RMK A01 T02250026  RH  027%=      5-min Rain = 0
KSB1 261128Z 32004KT 23/04 A30 RMK A01 T02250041  RH  030%=      5-min Rain = 0
KSB1 261129Z 33004KT 23/05 A30 RMK A01 T02250053  RH  033%=      5-min Rain = 0
KSB1 261130Z 33004KT 23/08 A30 RMK A01 T02250076  RH  038%=      5-min Rain = 0
KSB1 261131Z 33004KT 22/08 A30 RMK A01 T02230077  RH  039%=      5-min Rain = 0
KSB1 261132Z 32004KT 22/06 A30 RMK A01 T02220056  RH  034%=      5-min Rain = 0
KSB1 261133Z 32003KT 22/04 A30 RMK A01 T02220041  RH  031%=      5-min Rain = 0
KSB1 261134Z 32004KT 22/04 A30 RMK A01 T02220040  RH  030%=      5-min Rain = 0
KSB1 261135Z 32004KT 22/03 A30 RMK A01 T02220034  RH  029%=      5-min Rain = 0
KSB1 261136Z 31004KT 22/04 A30 RMK A01 T02220040  RH  031%=      5-min Rain = 0
KSB1 261137Z 32004KT 22/03 A30 RMK A01 T02220028  RH  028%=      5-min Rain = 0
KSB1 261138Z 32003KT 22/05 A30 RMK A01 T02220048  RH  032%=      5-min Rain = 0
KSB1 261139Z 31003KT 22/05 A30 RMK A01 T02220047  RH  032%=      5-min Rain = 0
KSB1 261140Z 31003KT 22/04 A30 RMK A01 T02230035  RH  029%=      5-min Rain = 0
KSB1 261141Z 32003KT 22/02 A30 RMK A01 T02220018  RH  026%=      5-min Rain = 0
KSB1 261142Z 32003KT 22/02 A30 RMK A01 T02210015  RH  026%=      5-min Rain = 0
KSB1 261143Z 34004KT 22/01 A30 RMK A01 T02200013  RH  025%=      5-min Rain = 0
KSB1 261144Z 34004KT 22/02 A30 RMK A01 T02170016  RH  026%=      5-min Rain = 0
KSB1 261145Z 34003KT 22/02 A30 RMK A01 T02150021  RH  028%=      5-min Rain = 0
KSB1 261146Z 33004KT 21/03 A30 RMK A01 T02120026  RH  029%=      5-min Rain = 0
KSB1 261147Z 33004KT 21/02 A30 RMK A01 T02100023  RH  029%=      5-min Rain = 0
KSB1 261148Z 33005KT 21/03 A30 RMK A01 T02070025  RH  030%=      5-min Rain = 0
KSB1 261149Z 32004KT 20/03 A30 RMK A01 T02040026  RH  031%=      5-min Rain = 0
KSB1 261150Z 32004KT 20/02 A30 RMK A01 T02030020  RH  030%=      5-min Rain = 0
KSB1 261151Z 32004KT 20/01 A30 RMK A01 T02030011  RH  028%=      5-min Rain = 0
KSB1 261152Z 32004KT 20/01 A3001 RMK A01 T02040013  RH  028%=      5-min Rain = 0
KSB1 261153Z 32005KT 21/01 A3001 RMK A01 T02050011  RH  027%=      5-min Rain = 0
KSB1 261154Z 32005KT 21/01 A3001 RMK A01 T02050011  RH  027%=      5-min Rain = 0
KSB1 261155Z 33004KT 21/01 A3001 RMK A01 T02060014  RH  028%=      5-min Rain = 0
KSB1 261156Z 32004KT 21/03 A3001 RMK A01 T02050025  RH  030%=      5-min Rain = 0
KSB1 261157Z 32004KT 20/03 A3001 RMK A01 T02040028  RH  031%=      5-min Rain = 0
KSB1 261158Z 32004KT 20/03 A3001 RMK A01 T02020029  RH  032%=      5-min Rain = 0
KSB1 261159Z 32004KT 20/02 A3001 RMK A01 T02010023  RH  031%=      5-min Rain = 0
KSB1 261200Z 32004KT 20/02 A3001 RMK A01 T02010020  RH  030%=      5-min Rain = 0
KSB1 261201Z 32005KT 20/02 A3001 RMK A01 T02020015  RH  029%=      5-min Rain = 0
KSB1 261202Z 32005KT 20/01 A3001 RMK A01 T02040012  RH  028%=      5-min Rain = 0
KSB1 261203Z 32005KT 21/01 A3001 RMK A01 T02050010  RH  027%=      5-min Rain = 0
KSB1 261204Z 32005KT 21/00 A3001 RMK A01 T02060004  RH  026%=      5-min Rain = 0
KSB1 261205Z 32005KT 21/01 A3001 RMK A01 T02070008  RH  026%=      5-min Rain = 0
KSB1 261206Z 32004KT 21/01 A3001 RMK A01 T02070005  RH  026%=      5-min Rain = 0
KSB1 261207Z 31005KT 21/M00 A3001 RMK A01 T02081003  RH  024%=      5-min Rain = 0
KSB1 261208Z 32005KT 21/M01 A3001 RMK A01 T02101007  RH  023%=      5-min Rain = 0
KSB1 261209Z 32005KT 21/M01 A3001 RMK A01 T02121008  RH  023%=      5-min Rain = 0
KSB1 261210Z 32005KT 21/M01 A3001 RMK A01 T02141007  RH  023%=      5-min Rain = 0
KSB1 261211Z 31006KT 21/M01 A3001 RMK A01 T02141006  RH  023%=      5-min Rain = 0
KSB1 261212Z 31005KT 21/M01 A3001 RMK A01 T02141008  RH  023%=      5-min Rain = 0
KSB1 261213Z 31005KT 22/M01 A3002 RMK A01 T02151008  RH  023%=      5-min Rain = 0
KSB1 261214Z 30005KT 22/M01 A3002 RMK A01 T02151010  RH  022%=      5-min Rain = 0
KSB1 261215Z 31004KT 22/M01 A3002 RMK A01 T02151011  RH  022%=      5-min Rain = 0
KSB1 261216Z 30002KT 21/M01 A3002 RMK A01 T02141008  RH  023%=      5-min Rain = 0
KSB1 261217Z 28001KT 21/M01 A3002 RMK A01 T02141011  RH  022%=      5-min Rain = 0
KSB1 261218Z 28001KT 21/M01 A3002 RMK A01 T02131014  RH  022%=      5-min Rain = 0
KSB1 261219Z 30002KT 21/M02 A3002 RMK A01 T02131020  RH  021%=      5-min Rain = 0
KSB1 261220Z 29002KT 21/M02 A3002 RMK A01 T02141022  RH  020%=      5-min Rain = 0
KSB1 261221Z 30002KT 21/M02 A3002 RMK A01 T02141024  RH  020%=      5-min Rain = 0
KSB1 261222Z 32002KT 22/M03 A3002 RMK A01 T02161026  RH  020%=      5-min Rain = 0
KSB1 261223Z 32002KT 22/M03 A3002 RMK A01 T02181027  RH  019%=      5-min Rain = 0
KSB1 261224Z 34002KT 22/M02 A3002 RMK A01 T02191018  RH  020%=      5-min Rain = 0
KSB1 261225Z 34002KT 22/M00 A3002 RMK A01 T02201002  RH  023%=      5-min Rain = 0
KSB1 261226Z 33003KT 22/01 A3002 RMK A01 T02180013  RH  026%=      5-min Rain = 0
KSB1 261227Z 33003KT 22/02 A3002 RMK A01 T02150024  RH  028%=      5-min Rain = 0
KSB1 261228Z 33003KT 21/03 A3002 RMK A01 T02120027  RH  029%=      5-min Rain = 0
KSB1 261229Z 34003KT 21/03 A3002 RMK A01 T02090027  RH  030%=      5-min Rain = 0
KSB1 261230Z 35003KT 21/03 A3002 RMK A01 T02080030  RH  031%=      5-min Rain = 0
KSB1 261231Z 35003KT 21/03 A3002 RMK A01 T02060032  RH  032%=      5-min Rain = 0
KSB1 261232Z 35003KT 21/03 A3002 RMK A01 T02050033  RH  032%=      5-min Rain = 0
KSB1 261233Z 36004KT 20/03 A3002 RMK A01 T02040032  RH  032%=      5-min Rain = 0
KSB1 261234Z 36004KT 20/03 A3002 RMK A01 T02040033  RH  032%=      5-min Rain = 0
KSB1 261235Z 36004KT 20/03 A3002 RMK A01 T02040033  RH  032%=      5-min Rain = 0
KSB1 261236Z 35004KT 20/04 A3002 RMK A01 T02040036  RH  033%=      5-min Rain = 0
KSB1 261237Z 35004KT 20/04 A3002 RMK A01 T02030037  RH  033%=      5-min Rain = 0
KSB1 261238Z 35004KT 20/03 A3002 RMK A01 T02030032  RH  032%=      5-min Rain = 0
KSB1 261239Z 35004KT 20/03 A3002 RMK A01 T02030027  RH  031%=      5-min Rain = 0
KSB1 261240Z 35003KT 20/02 A3002 RMK A01 T02040024  RH  030%=      5-min Rain = 0
KSB1 261241Z 35003KT 20/02 A3002 RMK A01 T02040023  RH  030%=      5-min Rain = 0
KSB1 261242Z 35003KT 20/02 A3002 RMK A01 T02040022  RH  030%=      5-min Rain = 0
KSB1 261243Z 35003KT 21/02 A3002 RMK A01 T02050023  RH  030%=      5-min Rain = 0
KSB1 261244Z 35003KT 21/02 A3002 RMK A01 T02050023  RH  030%=      5-min Rain = 0
KSB1 261245Z 35003KT 21/02 A3002 RMK A01 T02050021  RH  030%=      5-min Rain = 0
KSB1 261246Z 36003KT 21/02 A3002 RMK A01 T02050016  RH  028%=      5-min Rain = 0
KSB1 261247Z 00003KT 21/02 A3002 RMK A01 T02050018  RH  029%=      5-min Rain = 0
KSB1 261248Z 00003KT 21/02 A3003 RMK A01 T02050021  RH  029%=      5-min Rain = 0
KSB1 261249Z 00003KT 21/02 A3003 RMK A01 T02050021  RH  030%=      5-min Rain = 0
KSB1 261250Z 00003KT 21/02 A3003 RMK A01 T02050022  RH  030%=      5-min Rain = 0
KSB1 261251Z 00003KT 21/02 A3003 RMK A01 T02050021  RH  029%=      5-min Rain = 0
KSB1 261252Z 00003KT 21/02 A3003 RMK A01 T02060021  RH  029%=      5-min Rain = 0
KSB1 261253Z 01003KT 21/02 A3003 RMK A01 T02060022  RH  030%=      5-min Rain = 0
KSB1 261254Z 02003KT 21/02 A3003 RMK A01 T02060022  RH  030%=      5-min Rain = 0
KSB1 261255Z 02003KT 21/02 A3003 RMK A01 T02060024  RH  030%=      5-min Rain = 0
KSB1 261256Z 02003KT 21/03 A3003 RMK A01 T02060026  RH  030%=      5-min Rain = 0
KSB1 261257Z 02002KT 21/03 A3003 RMK A01 T02060027  RH  031%=      5-min Rain = 0
KSB1 261258Z 02002KT 21/03 A3003 RMK A01 T02060027  RH  031%=      5-min Rain = 0
KSB1 261259Z 02002KT 21/03 A3003 RMK A01 T02060029  RH  031%=      5-min Rain = 0
KSB1 261300Z 02002KT 21/03 A3003 RMK A01 T02060029  RH  031%=      5-min Rain = 0
KSB1 261301Z 02002KT 21/03 A3003 RMK A01 T02070027  RH  030%=      5-min Rain = 0
KSB1 261302Z 02002KT 21/02 A3003 RMK A01 T02090021  RH  029%=      5-min Rain = 0
KSB1 261303Z 02002KT 21/02 A3003 RMK A01 T02100020  RH  028%=      5-min Rain = 0
KSB1 261304Z 03002KT 21/01 A3003 RMK A01 T02120014  RH  027%=      5-min Rain = 0
KSB1 261305Z 03003KT 21/01 A3003 RMK A01 T02140010  RH  026%=      5-min Rain = 0
KSB1 261306Z 04004KT 22/01 A3003 RMK A01 T02160013  RH  026%=      5-min Rain = 0
KSB1 261307Z 02003KT 22/03 A3003 RMK A01 T02180025  RH  028%=      5-min Rain = 0
KSB1 261308Z 35004KT 22/02 A3003 RMK A01 T02190023  RH  028%=      5-min Rain = 0
KSB1 261309Z 01004KT 22/02 A3003 RMK A01 T02190018  RH  027%=      5-min Rain = 0
KSB1 261310Z 02003KT 22/02 A3003 RMK A01 T02200019  RH  027%=      5-min Rain = 0
KSB1 261311Z 01004KT 22/02 A3003 RMK A01 T02210021  RH  027%=      5-min Rain = 0
KSB1 261312Z 36004KT 22/02 A3003 RMK A01 T02220024  RH  027%=      5-min Rain = 0
KSB1 261313Z 00004KT 22/02 A3003 RMK A01 T02230022  RH  027%=      5-min Rain = 0
KSB1 261314Z 01003KT 22/03 A3003 RMK A01 T02230030  RH  028%=      5-min Rain = 0
KSB1 261315Z 07003KT 22/05 A3003 RMK A01 T02230054  RH  034%=      5-min Rain = 0
KSB1 261316Z 09003KT 22/06 A3003 RMK A01 T02160064  RH  037%=      5-min Rain = 0
KSB1 261317Z 05002KT 21/05 A3003 RMK A01 T02110053  RH  036%=      5-min Rain = 0
KSB1 261318Z 08002KT 21/06 A3003 RMK A01 T02090057  RH  037%=      5-min Rain = 0
KSB1 261319Z 10003KT 20/06 A3003 RMK A01 T02040062  RH  040%=      5-min Rain = 0
KSB1 261320Z 10004KT 20/06 A3003 RMK A01 T02000063  RH  041%=      5-min Rain = 0
KSB1 261321Z 10004KT 20/06 A3003 RMK A01 T01960064  RH  042%=      5-min Rain = 0
KSB1 261322Z 10004KT 19/07 A3004 RMK A01 T01930067  RH  044%=      5-min Rain = 0
KSB1 261323Z 10005KT 19/07 A3004 RMK A01 T01920068  RH  045%=      5-min Rain = 0
KSB1 261324Z 09004KT 19/07 A3003 RMK A01 T01900068  RH  045%=      5-min Rain = 0
KSB1 261325Z 08004KT 19/07 A3003 RMK A01 T01890069  RH  045%=      5-min Rain = 0
KSB1 261326Z 07003KT 19/07 A3003 RMK A01 T01890068  RH  045%=      5-min Rain = 0
KSB1 261327Z 06002KT 19/07 A3003 RMK A01 T01890067  RH  045%=      5-min Rain = 0
KSB1 261328Z 06002KT 19/07 A3003 RMK A01 T01880067  RH  045%=      5-min Rain = 0
KSB1 261329Z 06002KT 19/07 A3003 RMK A01 T01880067  RH  045%=      5-min Rain = 0
KSB1 261330Z 06002KT 19/07 A3003 RMK A01 T01870066  RH  045%=      5-min Rain = 0
KSB1 261331Z 07002KT 19/07 A3004 RMK A01 T01870067  RH  046%=      5-min Rain = 0
KSB1 261332Z 09003KT 19/07 A3004 RMK A01 T01880068  RH  046%=      5-min Rain = 0
KSB1 261333Z 10004KT 19/07 A3004 RMK A01 T01880068  RH  045%=      5-min Rain = 0
KSB1 261334Z 09003KT 19/07 A3004 RMK A01 T01890067  RH  045%=      5-min Rain = 0
KSB1 261335Z 10003KT 19/07 A3004 RMK A01 T01890068  RH  045%=      5-min Rain = 0
KSB1 261336Z 11002KT 19/07 A3004 RMK A01 T01890071  RH  046%=      5-min Rain = 0
KSB1 261337Z 08000KT 19/07 A3004 RMK A01 T01900073  RH  046%=      5-min Rain = 0
KSB1 261338Z 00000KT 19/07 A3004 RMK A01 T01910073  RH  046%=      5-min Rain = 0
KSB1 261339Z 32001KT 19/07 A3004 RMK A01 T01930074  RH  046%=      5-min Rain = 0
KSB1 261340Z 04001KT 19/08 A3004 RMK A01 T01930078  RH  047%=      5-min Rain = 0
KSB1 261341Z 06002KT 19/08 A3004 RMK A01 T01940079  RH  047%=      5-min Rain = 0
KSB1 261342Z 07002KT 20/08 A3004 RMK A01 T01950080  RH  047%=      5-min Rain = 0
KSB1 261343Z 08003KT 20/08 A3004 RMK A01 T01950081  RH  048%=      5-min Rain = 0
KSB1 261344Z 09003KT 20/08 A3004 RMK A01 T01950083  RH  048%=      5-min Rain = 0
KSB1 261345Z 11002KT 20/09 A3004 RMK A01 T01960086  RH  049%=      5-min Rain = 0
KSB1 261346Z 11002KT 20/09 A3004 RMK A01 T01950092  RH  051%=      5-min Rain = 0
KSB1 261347Z 10002KT 20/09 A3004 RMK A01 T01960093  RH  051%=      5-min Rain = 0
KSB1 261348Z 07001KT 20/09 A3004 RMK A01 T01960094  RH  052%=      5-min Rain = 0
KSB1 261349Z 09001KT 20/09 A3004 RMK A01 T01960092  RH  051%=      5-min Rain = 0
KSB1 261350Z 00000KT 20/09 A3004 RMK A01 T01970093  RH  051%=      5-min Rain = 0
KSB1 261351Z 00000KT 20/09 A3004 RMK A01 T01990092  RH  050%=      5-min Rain = 0
KSB1 261352Z 00000KT 20/09 A3004 RMK A01 T01990092  RH  050%=      5-min Rain = 0
KSB1 261353Z 08000KT 20/10 A3004 RMK A01 T02010097  RH  051%=      5-min Rain = 0
KSB1 261354Z 11001KT 20/10 A3004 RMK A01 T02010097  RH  051%=      5-min Rain = 0
KSB1 261355Z 11000KT 20/10 A3004 RMK A01 T02020097  RH  051%=      5-min Rain = 0
KSB1 261356Z 13001KT 20/10 A3004 RMK A01 T02030099  RH  051%=      5-min Rain = 0
KSB1 261357Z 13000KT 20/10 A3004 RMK A01 T02030100  RH  051%=      5-min Rain = 0
KSB1 261358Z 00000KT 20/10 A3004 RMK A01 T02040100  RH  051%=      5-min Rain = 0
KSB1 261359Z 19000KT 21/10 A3004 RMK A01 T02050100  RH  051%=      5-min Rain = 0
KSB1 261400Z 20001KT 21/10 A3004 RMK A01 T02060101  RH  051%=      5-min Rain = 0
KSB1 261401Z 20000KT 21/10 A3004 RMK A01 T02060101  RH  051%=      5-min Rain = 0
KSB1 261402Z 19001KT 21/10 A3004 RMK A01 T02060102  RH  051%=      5-min Rain = 0
KSB1 261403Z 20001KT 21/10 A3004 RMK A01 T02060103  RH  052%=      5-min Rain = 0
KSB1 261404Z 21001KT 21/10 A3004 RMK A01 T02050104  RH  052%=      5-min Rain = 0
KSB1 261405Z 20000KT 21/11 A3004 RMK A01 T02050105  RH  053%=      5-min Rain = 0
KSB1 261406Z 00000KT 21/11 A3004 RMK A01 T02060106  RH  053%=      5-min Rain = 0
KSB1 261407Z 00000KT 21/11 A3004 RMK A01 T02070106  RH  052%=      5-min Rain = 0
KSB1 261408Z 00000KT 21/11 A3004 RMK A01 T02070106  RH  052%=      5-min Rain = 0
KSB1 261409Z 23001KT 21/11 A3004 RMK A01 T02080107  RH  052%=      5-min Rain = 0
KSB1 261410Z 24000KT 21/11 A3004 RMK A01 T02080109  RH  053%=      5-min Rain = 0
KSB1 261411Z 31001KT 21/11 A3004 RMK A01 T02080111  RH  054%=      5-min Rain = 0
KSB1 261412Z 32000KT 21/11 A3004 RMK A01 T02090114  RH  055%=      5-min Rain = 0
KSB1 261413Z 00000KT 21/11 A3004 RMK A01 T02090114  RH  054%=      5-min Rain = 0
KSB1 261414Z 00000KT 21/11 A3004 RMK A01 T02100114  RH  054%=      5-min Rain = 0
KSB1 261415Z 00000KT 21/12 A3004 RMK A01 T02110115  RH  054%=      5-min Rain = 0
KSB1 261416Z 00000KT 21/12 A3004 RMK A01 T02120116  RH  054%=      5-min Rain = 0
KSB1 261417Z 03000KT 21/12 A3004 RMK A01 T02130116  RH  054%=      5-min Rain = 0
KSB1 261418Z 00001KT 21/12 A3004 RMK A01 T02140116  RH  054%=      5-min Rain = 0
KSB1 261419Z 01001KT 22/12 A3004 RMK A01 T02150116  RH  053%=      5-min Rain = 0
KSB1 261420Z 02000KT 22/12 A3004 RMK A01 T02160116  RH  053%=      5-min Rain = 0
KSB1 261421Z 11001KT 22/11 A3004 RMK A01 T02180114  RH  052%=      5-min Rain = 0
KSB1 261422Z 12001KT 22/11 A3005 RMK A01 T02190114  RH  051%=      5-min Rain = 0
KSB1 261423Z 11001KT 22/12 A3005 RMK A01 T02200115  RH  051%=      5-min Rain = 0
KSB1 261424Z 15001KT 22/12 A3005 RMK A01 T02210116  RH  051%=      5-min Rain = 0
KSB1 261425Z 15001KT 22/12 A3005 RMK A01 T02220115  RH  051%=      5-min Rain = 0
KSB1 261426Z 14002KT 22/11 A3005 RMK A01 T02230113  RH  050%=      5-min Rain = 0
KSB1 261427Z 13002KT 22/11 A3005 RMK A01 T02230110  RH  049%=      5-min Rain = 0
KSB1 261428Z 13001KT 22/11 A3005 RMK A01 T02230108  RH  048%=      5-min Rain = 0
KSB1 261429Z 11002KT 22/11 A3005 RMK A01 T02240111  RH  049%=      5-min Rain = 0
KSB1 261430Z 10001KT 23/11 A3005 RMK A01 T02250114  RH  049%=      5-min Rain = 0
KSB1 261431Z 10001KT 23/11 A3005 RMK A01 T02260114  RH  049%=      5-min Rain = 0
KSB1 261432Z 11002KT 23/12 A3005 RMK A01 T02260115  RH  049%=      5-min Rain = 0
KSB1 261433Z 11002KT 23/12 A3005 RMK A01 T02260115  RH  049%=      5-min Rain = 0
KSB1 261434Z 15002KT 23/11 A3005 RMK A01 T02270113  RH  049%=      5-min Rain = 0
KSB1 261435Z 15002KT 23/11 A3005 RMK A01 T02280106  RH  046%=      5-min Rain = 0
KSB1 261436Z 17002KT 23/11 A3005 RMK A01 T02290106  RH  046%=      5-min Rain = 0
KSB1 261437Z 16001KT 23/11 A3005 RMK A01 T02290107  RH  046%=      5-min Rain = 0
KSB1 261438Z 15002KT 23/10 A3005 RMK A01 T02290103  RH  045%=      5-min Rain = 0
KSB1 261439Z 14002KT 23/10 A3005 RMK A01 T02290100  RH  044%=      5-min Rain = 0
KSB1 261440Z 13002KT 23/10 A3005 RMK A01 T02300101  RH  044%=      5-min Rain = 0
KSB1 261441Z 14002KT 23/10 A3005 RMK A01 T02300099  RH  043%=      5-min Rain = 0
KSB1 261442Z 16002KT 23/10 A3005 RMK A01 T02300099  RH  043%=      5-min Rain = 0
KSB1 261443Z 17001KT 23/10 A3005 RMK A01 T02300100  RH  044%=      5-min Rain = 0
KSB1 261444Z 16002KT 23/10 A3005 RMK A01 T02310099  RH  043%=      5-min Rain = 0
KSB1 261445Z 15002KT 23/10 A3005 RMK A01 T02310096  RH  042%=      5-min Rain = 0
KSB1 261446Z 14002KT 23/09 A3005 RMK A01 T02330093  RH  041%=      5-min Rain = 0
KSB1 261447Z 14001KT 23/10 A3005 RMK A01 T02340097  RH  042%=      5-min Rain = 0
KSB1 261448Z 12001KT 24/10 A3005 RMK A01 T02350097  RH  042%=      5-min Rain = 0
KSB1 261449Z 11001KT 24/10 A3005 RMK A01 T02350097  RH  041%=      5-min Rain = 0
KSB1 261450Z 10001KT 24/10 A3005 RMK A01 T02360098  RH  042%=      5-min Rain = 0
KSB1 261451Z 12001KT 24/10 A3005 RMK A01 T02360098  RH  042%=      5-min Rain = 0
KSB1 261452Z 13001KT 24/10 A3005 RMK A01 T02370096  RH  041%=      5-min Rain = 0
KSB1 261453Z 12000KT 24/10 A3005 RMK A01 T02370096  RH  041%=      5-min Rain = 0
KSB1 261454Z 09001KT 24/10 A3005 RMK A01 T02380096  RH  040%=      5-min Rain = 0
KSB1 261455Z 09001KT 24/09 A3005 RMK A01 T02390090  RH  039%=      5-min Rain = 0
KSB1 261456Z 11001KT 24/09 A3005 RMK A01 T02390091  RH  039%=      5-min Rain = 0
KSB1 261457Z 08001KT 24/09 A3005 RMK A01 T02400087  RH  038%=      5-min Rain = 0
KSB1 261458Z 07001KT 24/09 A3005 RMK A01 T02420094  RH  039%=      5-min Rain = 0
KSB1 261459Z 07001KT 24/09 A3005 RMK A01 T02430094  RH  039%=      5-min Rain = 0
KSB1 261500Z 15001KT 25/09 A3005 RMK A01 T02450094  RH  038%=      5-min Rain = 0
KSB1 261501Z 11000KT 25/09 A3005 RMK A01 T02460091  RH  037%=      5-min Rain = 0
KSB1 261502Z 06002KT 25/09 A3005 RMK A01 T02460088  RH  037%=      5-min Rain = 0
KSB1 261503Z 05004KT 25/10 A3005 RMK A01 T02460095  RH  038%=      5-min Rain = 0
KSB1 261504Z 08004KT 25/10 A3005 RMK A01 T02450098  RH  039%=      5-min Rain = 0
KSB1 261505Z 09003KT 24/10 A3005 RMK A01 T02440100  RH  040%=      5-min Rain = 0
KSB1 261506Z 12004KT 24/10 A3005 RMK A01 T02430103  RH  041%=      5-min Rain = 0
KSB1 261507Z 12004KT 24/10 A3005 RMK A01 T02440104  RH  041%=      5-min Rain = 0
KSB1 261508Z 12003KT 25/11 A3006 RMK A01 T02450105  RH  041%=      5-min Rain = 0
KSB1 261509Z 12004KT 25/11 A3006 RMK A01 T02460107  RH  042%=      5-min Rain = 0
KSB1 261510Z 14005KT 25/11 A3006 RMK A01 T02460110  RH  042%=      5-min Rain = 0
KSB1 261511Z 13005KT 25/11 A3006 RMK A01 T02470109  RH  042%=      5-min Rain = 0
KSB1 261512Z 13004KT 25/11 A3006 RMK A01 T02470111  RH  042%=      5-min Rain = 0
KSB1 261513Z 16005KT 25/11 A3006 RMK A01 T02470109  RH  042%=      5-min Rain = 0
KSB1 261514Z 15004KT 25/11 A3006 RMK A01 T02470106  RH  041%=      5-min Rain = 0
KSB1 261515Z 13003KT 25/10 A3006 RMK A01 T02490097  RH  038%=      5-min Rain = 0
KSB1 261516Z 13004KT 25/08 A3005 RMK A01 T02500084  RH  035%=      5-min Rain = 0
KSB1 261517Z 12003KT 25/09 A3005 RMK A01 T02510085  RH  035%=      5-min Rain = 0
KSB1 261518Z 13003KT 25/09 A3005 RMK A01 T02520086  RH  035%=      5-min Rain = 0
KSB1 261519Z 11002KT 25/09 A3006 RMK A01 T02520090  RH  036%=      5-min Rain = 0
KSB1 261520Z 13002KT 25/09 A3006 RMK A01 T02520092  RH  036%=      5-min Rain = 0
KSB1 261521Z 15002KT 25/09 A3006 RMK A01 T02520086  RH  035%=      5-min Rain = 0
KSB1 261522Z 15003KT 25/08 A3006 RMK A01 T02510084  RH  035%=      5-min Rain = 0
KSB1 261523Z 14004KT 25/09 A3006 RMK A01 T02530085  RH  034%=      5-min Rain = 0
KSB1 261524Z 14003KT 25/09 A3006 RMK A01 T02530088  RH  035%=      5-min Rain = 0
KSB1 261525Z 14004KT 25/08 A3006 RMK A01 T02540081  RH  033%=      5-min Rain = 0
KSB1 261526Z 14003KT 26/09 A3006 RMK A01 T02550085  RH  034%=      5-min Rain = 0
KSB1 261527Z 12003KT 26/09 A3006 RMK A01 T02550091  RH  035%=      5-min Rain = 0
KSB1 261528Z 13002KT 26/09 A3006 RMK A01 T02550090  RH  035%=      5-min Rain = 0
KSB1 261529Z 13003KT 26/09 A3006 RMK A01 T02550089  RH  035%=      5-min Rain = 0
KSB1 261530Z 12003KT 26/09 A3005 RMK A01 T02550090  RH  035%=      5-min Rain = 0
KSB1 261531Z 12003KT 26/09 A3005 RMK A01 T02550090  RH  035%=      5-min Rain = 0
KSB1 261532Z 11004KT 26/09 A3006 RMK A01 T02580090  RH  035%=      5-min Rain = 0
KSB1 261533Z 11005KT 26/09 A3006 RMK A01 T02580088  RH  034%=      5-min Rain = 0
KSB1 261534Z 13003KT 26/08 A3006 RMK A01 T02580084  RH  033%=      5-min Rain = 0
KSB1 261535Z 13002KT 26/09 A3006 RMK A01 T02570086  RH  034%=      5-min Rain = 0
KSB1 261536Z 12002KT 26/09 A3006 RMK A01 T02560087  RH  034%=      5-min Rain = 0
KSB1 261537Z 12004KT 26/09 A3006 RMK A01 T02570087  RH  034%=      5-min Rain = 0
KSB1 261538Z 11003KT 26/08 A3006 RMK A01 T02580082  RH  033%=      5-min Rain = 0
KSB1 261539Z 11005KT 26/08 A3006 RMK A01 T02570084  RH  033%=      5-min Rain = 0
KSB1 261540Z 11005KT 26/09 A3006 RMK A01 T02580086  RH  034%=      5-min Rain = 0
KSB1 261541Z 13005KT 26/09 A3006 RMK A01 T02590094  RH  035%=      5-min Rain = 0
KSB1 261542Z 16005KT 26/09 A3006 RMK A01 T02600091  RH  034%=      5-min Rain = 0
KSB1 261543Z 15005KT 26/09 A3006 RMK A01 T02600089  RH  034%=      5-min Rain = 0
KSB1 261544Z 13006KT 26/08 A3006 RMK A01 T02610076  RH  031%=      5-min Rain = 0
KSB1 261545Z 13005KT 26/06 A3006 RMK A01 T02620064  RH  028%=      5-min Rain = 0
KSB1 261546Z 13004KT 26/07 A3006 RMK A01 T02630071  RH  030%=      5-min Rain = 0
KSB1 261547Z 14004KT 26/07 A3006 RMK A01 T02630066  RH  029%=      5-min Rain = 0
KSB1 261548Z 13005KT 26/04 A3006 RMK A01 T02640037  RH  023%=      5-min Rain = 0
KSB1 261549Z 14004KT 27/05 A3006 RMK A01 T02660053  RH  026%=      5-min Rain = 0
KSB1 261550Z 16004KT 27/05 A3006 RMK A01 T02680054  RH  026%=      5-min Rain = 0
KSB1 261551Z 13005KT 27/04 A3006 RMK A01 T02690042  RH  023%=      5-min Rain = 0
KSB1 261552Z 14004KT 27/04 A3006 RMK A01 T02670043  RH  024%=      5-min Rain = 0
KSB1 261553Z 14004KT 27/05 A3006 RMK A01 T02660053  RH  026%=      5-min Rain = 0
KSB1 261554Z 11004KT 27/05 A3006 RMK A01 T02680050  RH  025%=      5-min Rain = 0
KSB1 261555Z 14006KT 27/04 A3006 RMK A01 T02700036  RH  022%=      5-min Rain = 0
KSB1 261556Z 14007KT 27/04 A3006 RMK A01 T02710043  RH  023%=      5-min Rain = 0
KSB1 261557Z 13005KT 27/04 A3006 RMK A01 T02710044  RH  023%=      5-min Rain = 0
KSB1 261558Z 13005KT 27/04 A3006 RMK A01 T02700042  RH  023%=      5-min Rain = 0
KSB1 261559Z 14005KT 27/04 A3006 RMK A01 T02710044  RH  023%=      5-min Rain = 0
KSB1 261600Z 14004KT 27/05 A3006 RMK A01 T02720046  RH  024%=      5-min Rain = 0
KSB1 261601Z 14006KT 27/05 A3006 RMK A01 T02730051  RH  024%=      5-min Rain = 0
KSB1 261602Z 15004KT 27/05 A3006 RMK A01 T02730051  RH  024%=      5-min Rain = 0
KSB1 261603Z 12003KT 27/05 A3006 RMK A01 T02720049  RH  024%=      5-min Rain = 0
KSB1 261604Z 12005KT 27/05 A3006 RMK A01 T02720047  RH  024%=      5-min Rain = 0
KSB1 261605Z 12005KT 27/05 A3006 RMK A01 T02710049  RH  024%=      5-min Rain = 0
KSB1 261606Z 16005KT 27/05 A3006 RMK A01 T02710053  RH  025%=      5-min Rain = 0
KSB1 261607Z 16007KT 27/05 A3006 RMK A01 T02730051  RH  024%=      5-min Rain = 0
KSB1 261608Z 16008KT 28/05 A3006 RMK A01 T02760046  RH  023%=      5-min Rain = 0
KSB1 261609Z 17007KT 28/05 A3006 RMK A01 T02760046  RH  023%=      5-min Rain = 0
KSB1 261610Z 17006KT 28/05 A3006 RMK A01 T02750045  RH  023%=      5-min Rain = 0
KSB1 261611Z 16005KT 27/04 A3006 RMK A01 T02740041  RH  022%=      5-min Rain = 0
KSB1 261612Z 14006KT 27/04 A3006 RMK A01 T02730037  RH  022%=      5-min Rain = 0
KSB1 261613Z 18006KT 28/04 A3006 RMK A01 T02760039  RH  022%=      5-min Rain = 0
KSB1 261614Z 19008KT 28/03 A3006 RMK A01 T02770031  RH  021%=      5-min Rain = 0
KSB1 261615Z 19007KT 28/02 A3006 RMK A01 T02760019  RH  019%=      5-min Rain = 0
KSB1 261616Z 18006KT 28/02 A3006 RMK A01 T02750016  RH  019%=      5-min Rain = 0
KSB1 261617Z 13007KT 28/03 A3006 RMK A01 T02750032  RH  021%=      5-min Rain = 0
KSB1 261618Z 14006KT 28/04 A3006 RMK A01 T02750036  RH  022%=      5-min Rain = 0
KSB1 261619Z 16004KT 27/03 A3006 RMK A01 T02740034  RH  021%=      5-min Rain = 0
KSB1 261620Z 16005KT 27/03 A3006 RMK A01 T02730032  RH  021%=      5-min Rain = 0
KSB1 261621Z 15008KT 27/02 A3006 RMK A01 T02720022  RH  020%=      5-min Rain = 0
KSB1 261622Z 16008KT 27/03 A3006 RMK A01 T02740028  RH  021%=      5-min Rain = 0
KSB1 261623Z 18007KT 28/03 A3006 RMK A01 T02750032  RH  021%=      5-min Rain = 0
KSB1 261624Z 18005KT 27/03 A3006 RMK A01 T02740032  RH  021%=      5-min Rain = 0
KSB1 261625Z 17004KT 27/03 A3006 RMK A01 T02730032  RH  021%=      5-min Rain = 0
KSB1 261626Z 13008KT 27/04 A3006 RMK A01 T02740035  RH  021%=      5-min Rain = 0
KSB1 261627Z 12008KT 27/04 A3006 RMK A01 T02740035  RH  022%=      5-min Rain = 0
KSB1 261628Z 15007KT 27/04 A3006 RMK A01 T02730038  RH  022%=      5-min Rain = 0
KSB1 261629Z 14007KT 27/04 A3005 RMK A01 T02730040  RH  023%=      5-min Rain = 0
KSB1 261630Z 15008KT 27/04 A3005 RMK A01 T02740043  RH  023%=      5-min Rain = 0
KSB1 261631Z 15010KT 28/05 A3005 RMK A01 T02760045  RH  023%=      5-min Rain = 0
KSB1 261632Z 17011KT 28/03 A3006 RMK A01 T02770026  RH  020%=      5-min Rain = 0
KSB1 261633Z 16011KT 28/02 A3006 RMK A01 T02760019  RH  019%=      5-min Rain = 0
KSB1 261634Z 17009KT 28/02 A3006 RMK A01 T02760022  RH  019%=      5-min Rain = 0
KSB1 261635Z 17010KT 28/03 A3006 RMK A01 T02770032  RH  021%=      5-min Rain = 0
KSB1 261636Z 17012KT 28/02 A3006 RMK A01 T02770017  RH  019%=      5-min Rain = 0
KSB1 261637Z 17009KT 28/01 A3006 RMK A01 T02760007  RH  017%=      5-min Rain = 0
KSB1 261638Z 17008KT 28/02 A3006 RMK A01 T02750021  RH  019%=      5-min Rain = 0
KSB1 261639Z 18010KT 27/02 A3006 RMK A01 T02740015  RH  019%=      5-min Rain = 0
KSB1 261640Z 18010KT 27/01 A3006 RMK A01 T02730012  RH  018%=      5-min Rain = 0
KSB1 261641Z 18009KT 27/02 A3006 RMK A01 T02730016  RH  019%=      5-min Rain = 0
KSB1 261642Z 19009KT 27/01 A3006 RMK A01 T02740013  RH  018%=      5-min Rain = 0
KSB1 261643Z 17010KT 28/01 A3006 RMK A01 T02750010  RH  018%=      5-min Rain = 0
KSB1 261644Z 18010KT 28/00 A3006 RMK A01 T02750002  RH  017%=      5-min Rain = 0
KSB1 261645Z 18009KT 28/01 A3006 RMK A01 T02750006  RH  017%=      5-min Rain = 0
KSB1 261646Z 17009KT 27/02 A3005 RMK A01 T02740018  RH  019%=      5-min Rain = 0
KSB1 261647Z 16009KT 27/03 A3005 RMK A01 T02730025  RH  020%=      5-min Rain = 0
KSB1 261648Z 16008KT 27/02 A3006 RMK A01 T02740017  RH  019%=      5-min Rain = 0
KSB1 261649Z 16010KT 28/01 A3006 RMK A01 T02760007  RH  017%=      5-min Rain = 0
KSB1 261650Z 17010KT 28/01 A3006 RMK A01 T02750010  RH  018%=      5-min Rain = 0
KSB1 261651Z 16009KT 28/02 A3006 RMK A01 T02750024  RH  020%=      5-min Rain = 0
KSB1 261652Z 16009KT 28/03 A3006 RMK A01 T02750031  RH  021%=      5-min Rain = 0
KSB1 261653Z 17008KT 28/03 A3005 RMK A01 T02750032  RH  021%=      5-min Rain = 0
KSB1 261654Z 17011KT 28/03 A3005 RMK A01 T02760032  RH  021%=      5-min Rain = 0
KSB1 261655Z 16011KT 28/04 A3005 RMK A01 T02750036  RH  022%=      5-min Rain = 0
KSB1 261656Z 16011KT 27/04 A3005 RMK A01 T02740037  RH  022%=      5-min Rain = 0
KSB1 261657Z 15011KT 27/04 A3005 RMK A01 T02730038  RH  022%=      5-min Rain = 0
KSB1 261658Z 15010KT 27/04 A3005 RMK A01 T02740036  RH  022%=      5-min Rain = 0
KSB1 261659Z 15009KT 27/04 A3005 RMK A01 T02740040  RH  022%=      5-min Rain = 0
KSB1 261700Z 16009KT 27/04 A3005 RMK A01 T02740042  RH  023%=      5-min Rain = 0
KSB1 261701Z 15011KT 27/05 A3005 RMK A01 T02730046  RH  023%=      5-min Rain = 0
KSB1 261702Z 16010KT 27/04 A3005 RMK A01 T02730041  RH  023%=      5-min Rain = 0
KSB1 261703Z 17009KT 27/04 A3005 RMK A01 T02730041  RH  022%=      5-min Rain = 0
KSB1 261704Z 15010KT 28/05 A3005 RMK A01 T02750048  RH  023%=      5-min Rain = 0
KSB1 261705Z 14011KT 28/05 A3005 RMK A01 T02760049  RH  023%=      5-min Rain = 0
KSB1 261706Z 17012KT 28/03 A3005 RMK A01 T02780034  RH  021%=      5-min Rain = 0
KSB1 261707Z 16011KT 28/03 A3005 RMK A01 T02770034  RH  021%=      5-min Rain = 0
KSB1 261708Z 16010KT 28/04 A3005 RMK A01 T02760044  RH  023%=      5-min Rain = 0
KSB1 261709Z 15010KT 28/05 A3005 RMK A01 T02750048  RH  023%=      5-min Rain = 0
KSB1 261710Z 15010KT 28/05 A3005 RMK A01 T02760053  RH  024%=      5-min Rain = 0
KSB1 261711Z 14011KT 28/05 A3005 RMK A01 T02760052  RH  024%=      5-min Rain = 0
KSB1 261712Z 16011KT 28/04 A3005 RMK A01 T02760039  RH  022%=      5-min Rain = 0
KSB1 261713Z 16010KT 28/03 A3005 RMK A01 T02760032  RH  021%=      5-min Rain = 0
KSB1 261714Z 16009KT 28/04 A3005 RMK A01 T02760039  RH  022%=      5-min Rain = 0
KSB1 261715Z 16011KT 28/04 A3005 RMK A01 T02780043  RH  022%=      5-min Rain = 0
KSB1 261716Z 16010KT 28/04 A3005 RMK A01 T02790037  RH  021%=      5-min Rain = 0
KSB1 261717Z 15009KT 28/03 A3005 RMK A01 T02790029  RH  020%=      5-min Rain = 0
KSB1 261718Z 16010KT 28/03 A3005 RMK A01 T02810029  RH  020%=      5-min Rain = 0
KSB1 261719Z 16012KT 28/02 A3005 RMK A01 T02830020  RH  018%=      5-min Rain = 0
KSB1 261720Z 16012KT 28/03 A3005 RMK A01 T02820025  RH  019%=      5-min Rain = 0
KSB1 261721Z 17011KT 28/02 A3005 RMK A01 T02810020  RH  018%=      5-min Rain = 0
KSB1 261722Z 17014KT 28/02 A3005 RMK A01 T02810016  RH  018%=      5-min Rain = 0
KSB1 261723Z 16013KT 28/01 A3005 RMK A01 T02800014  RH  018%=      5-min Rain = 0
KSB1 261724Z 16013KT 28/01 A3005 RMK A01 T02790010  RH  017%=      5-min Rain = 0
KSB1 261725Z 17011KT 28/01 A3005 RMK A01 T02790011  RH  018%=      5-min Rain = 0
KSB1 261726Z 18012KT 28/01 A3005 RMK A01 T02800011  RH  017%=      5-min Rain = 0
KSB1 261727Z 18012KT 28/01 A3005 RMK A01 T02800010  RH  017%=      5-min Rain = 0
KSB1 261728Z 16012KT 28/01 A3005 RMK A01 T02790013  RH  018%=      5-min Rain = 0
KSB1 261729Z 16011KT 28/01 A3005 RMK A01 T02810007  RH  017%=      5-min Rain = 0
KSB1 261730Z 17010KT 28/01 A3005 RMK A01 T02820009  RH  017%=      5-min Rain = 0
KSB1 261731Z 18011KT 28/02 A3005 RMK A01 T02820015  RH  018%=      5-min Rain = 0
KSB1 261732Z 17011KT 28/01 A3005 RMK A01 T02840012  RH  017%=      5-min Rain = 0
KSB1 261733Z 17010KT 28/01 A3005 RMK A01 T02830012  RH  017%=      5-min Rain = 0
KSB1 261734Z 16010KT 28/02 A3005 RMK A01 T02840015  RH  018%=      5-min Rain = 0
KSB1 261735Z 17011KT 29/02 A3005 RMK A01 T02850015  RH  017%=      5-min Rain = 0
KSB1 261736Z 17012KT 29/01 A3005 RMK A01 T02850013  RH  017%=      5-min Rain = 0
KSB1 261737Z 17012KT 28/01 A3005 RMK A01 T02830011  RH  017%=      5-min Rain = 0
KSB1 261738Z 17013KT 28/01 A3005 RMK A01 T02820013  RH  017%=      5-min Rain = 0
KSB1 261739Z 16013KT 28/01 A3005 RMK A01 T02830008  RH  017%=      5-min Rain = 0
KSB1 261740Z 16014KT 28/01 A3004 RMK A01 T02810005  RH  017%=      5-min Rain = 0
KSB1 261741Z 17013KT 28/01 A3004 RMK A01 T02810010  RH  017%=      5-min Rain = 0
KSB1 261742Z 16012KT 28/02 A3004 RMK A01 T02800019  RH  019%=      5-min Rain = 0
KSB1 261743Z 16010KT 28/02 A3004 RMK A01 T02800023  RH  019%=      5-min Rain = 0
KSB1 261744Z 16010KT 28/03 A3004 RMK A01 T02800026  RH  019%=      5-min Rain = 0
KSB1 261745Z 17011KT 28/03 A3004 RMK A01 T02800028  RH  020%=      5-min Rain = 0
KSB1 261746Z 17010KT 28/03 A3004 RMK A01 T02800027  RH  020%=      5-min Rain = 0
KSB1 261747Z 15012KT 28/03 A3004 RMK A01 T02810029  RH  020%=      5-min Rain = 0
KSB1 261748Z 16010KT 28/03 A3004 RMK A01 T02830028  RH  019%=      5-min Rain = 0
KSB1 261749Z 17010KT 28/03 A3004 RMK A01 T02840031  RH  020%=      5-min Rain = 0
KSB1 261750Z 18013KT 28/02 A3004 RMK A01 T02840023  RH  019%=      5-min Rain = 0
KSB1 261751Z 17012KT 28/02 A3004 RMK A01 T02830016  RH  018%=      5-min Rain = 0
KSB1 261752Z 18011KT 28/02 A3004 RMK A01 T02830016  RH  018%=      5-min Rain = 0
KSB1 261753Z 18011KT 28/01 A3004 RMK A01 T02830014  RH  018%=      5-min Rain = 0
KSB1 261754Z 18014KT 28/01 A3004 RMK A01 T02820011  RH  017%=      5-min Rain = 0
KSB1 261755Z 17014KT 28/01 A3004 RMK A01 T02810011  RH  017%=      5-min Rain = 0
KSB1 261756Z 18013KT 28/01 A3004 RMK A01 T02810006  RH  017%=      5-min Rain = 0
KSB1 261757Z 17010KT 28/01 A3004 RMK A01 T02820006  RH  017%=      5-min Rain = 0
KSB1 261758Z 16011KT 28/01 A3004 RMK A01 T02840014  RH  017%=      5-min Rain = 0
KSB1 261759Z 16015KT 29/02 A3004 RMK A01 T02860016  RH  018%=      5-min Rain = 0
KSB1 261800Z 16015KT 28/00 A3004 RMK A01 T02840003  RH  016%=      5-min Rain = 0
KSB1 261801Z 16012G17KT 28/01 A3004 RMK A01 T02820006  RH  017%=      5-min Rain = 0
KSB1 261802Z 17015KT 28/01 A3004 RMK A01 T02820014  RH  018%=      5-min Rain = 0
KSB1 261803Z 17014KT 28/02 A3004 RMK A01 T02820016  RH  018%=      5-min Rain = 0
KSB1 261804Z 17011KT 28/01 A3004 RMK A01 T02820012  RH  017%=      5-min Rain = 0
KSB1 261805Z 15012KT 28/02 A3004 RMK A01 T02830016  RH  018%=      5-min Rain = 0
KSB1 261806Z 16014KT 28/01 A3003 RMK A01 T02840013  RH  017%=      5-min Rain = 0
KSB1 261807Z 16012KT 28/01 A3004 RMK A01 T02840005  RH  016%=      5-min Rain = 0
KSB1 261808Z 16014G20KT 28/01 A3003 RMK A01 T02840007  RH  017%=      5-min Rain = 0
KSB1 261809Z 16015KT 29/01 A3003 RMK A01 T02850009  RH  017%=      5-min Rain = 0
KSB1 261810Z 17014KT 28/01 A3003 RMK A01 T02840008  RH  017%=      5-min Rain = 0
KSB1 261811Z 17016KT 28/01 A3004 RMK A01 T02840009  RH  017%=      5-min Rain = 0
KSB1 261812Z 18014KT 28/01 A3004 RMK A01 T02840008  RH  017%=      5-min Rain = 0
KSB1 261813Z 17014KT 28/01 A3004 RMK A01 T02840009  RH  017%=      5-min Rain = 0
KSB1 261814Z 16013KT 29/01 A3004 RMK A01 T02860013  RH  017%=      5-min Rain = 0
KSB1 261815Z 16013KT 29/01 A3004 RMK A01 T02880011  RH  017%=      5-min Rain = 0
KSB1 261816Z 17015KT 29/01 A3004 RMK A01 T02870012  RH  017%=      5-min Rain = 0
KSB1 261817Z 17014KT 29/01 A3003 RMK A01 T02870009  RH  017%=      5-min Rain = 0
KSB1 261818Z 17014KT 29/01 A3003 RMK A01 T02880010  RH  017%=      5-min Rain = 0
KSB1 261819Z 16014KT 29/01 A3003 RMK A01 T02870013  RH  017%=      5-min Rain = 0
KSB1 261820Z 16014KT 29/01 A3003 RMK A01 T02890011  RH  017%=      5-min Rain = 0
KSB1 261821Z 17015KT 29/01 A3003 RMK A01 T02920007  RH  016%=      5-min Rain = 0
KSB1 261822Z 16013G18KT 29/01 A3003 RMK A01 T02900007  RH  016%=      5-min Rain = 0
KSB1 261823Z 16015KT 29/01 A3003 RMK A01 T02900008  RH  016%=      5-min Rain = 0
KSB1 261824Z 15016KT 29/01 A3003 RMK A01 T02900008  RH  016%=      5-min Rain = 0
KSB1 261825Z 16017KT 29/01 A3003 RMK A01 T02900008  RH  016%=      5-min Rain = 0
KSB1 261826Z 17018KT 29/01 A3003 RMK A01 T02910008  RH  016%=      5-min Rain = 0
KSB1 261827Z 16016KT 29/01 A3003 RMK A01 T02900007  RH  016%=      5-min Rain = 0
KSB1 261828Z 17016KT 29/01 A3003 RMK A01 T02890007  RH  016%=      5-min Rain = 0
KSB1 261829Z 18015KT 29/01 A3003 RMK A01 T02890010  RH  016%=      5-min Rain = 0
KSB1 261830Z 18015G21KT 29/01 A3003 RMK A01 T02920014  RH  017%=      5-min Rain = 0
KSB1 261831Z 17019KT 29/01 A3003 RMK A01 T02940014  RH  016%=      5-min Rain = 0
KSB1 261832Z 17014KT 29/01 A3003 RMK A01 T02940011  RH  016%=      5-min Rain = 0
KSB1 261833Z 17015KT 29/01 A3003 RMK A01 T02940012  RH  016%=      5-min Rain = 0
KSB1 261834Z 17014G20KT 29/01 A3003 RMK A01 T02930013  RH  017%=      5-min Rain = 0
KSB1 261835Z 17016KT 29/01 A3003 RMK A01 T02940012  RH  016%=      5-min Rain = 0
KSB1 261836Z 16015G22KT 29/01 A3003 RMK A01 T02940009  RH  016%=      5-min Rain = 0
KSB1 261837Z 17015KT 29/01 A3003 RMK A01 T02940012  RH  016%=      5-min Rain = 0
KSB1 261838Z 17014KT 30/01 A3003 RMK A01 T02950013  RH  016%=      5-min Rain = 0
KSB1 261839Z 19015KT 30/01 A3003 RMK A01 T02950014  RH  016%=      5-min Rain = 0
KSB1 261840Z 18016KT 30/02 A3003 RMK A01 T02950015  RH  016%=      5-min Rain = 0
KSB1 261841Z 19017KT 29/01 A3003 RMK A01 T02940013  RH  016%=      5-min Rain = 0
KSB1 261842Z 16017KT 29/02 A3003 RMK A01 T02930015  RH  017%=      5-min Rain = 0
KSB1 261843Z 17014G21KT 29/02 A3003 RMK A01 T02940015  RH  017%=      5-min Rain = 0
KSB1 261844Z 18014KT 30/02 A3003 RMK A01 T02950016  RH  017%=      5-min Rain = 0
KSB1 261845Z 17012KT 30/02 A3003 RMK A01 T02960016  RH  017%=      5-min Rain = 0
KSB1 261846Z 17012KT 30/02 A3003 RMK A01 T02970018  RH  017%=      5-min Rain = 0
KSB1 261847Z 18012KT 30/02 A3002 RMK A01 T03000018  RH  016%=      5-min Rain = 0
KSB1 261848Z 17015KT 30/02 A3002 RMK A01 T03000018  RH  016%=      5-min Rain = 0
KSB1 261849Z 17014KT 30/02 A3002 RMK A01 T03000018  RH  016%=      5-min Rain = 0
KSB1 261850Z 16017KT 30/02 A3002 RMK A01 T03010018  RH  016%=      5-min Rain = 0
KSB1 261851Z 17015KT 30/02 A3002 RMK A01 T02990016  RH  016%=      5-min Rain = 0
KSB1 261852Z 17014KT 30/02 A3002 RMK A01 T02990018  RH  016%=      5-min Rain = 0
KSB1 261853Z 17014KT 30/02 A3002 RMK A01 T02990018  RH  017%=      5-min Rain = 0
KSB1 261854Z 16016KT 30/02 A3002 RMK A01 T02980019  RH  017%=      5-min Rain = 0
KSB1 261855Z 17016KT 30/02 A3002 RMK A01 T02980018  RH  017%=      5-min Rain = 0
KSB1 261856Z 17016KT 30/02 A3002 RMK A01 T02960018  RH  017%=      5-min Rain = 0
KSB1 261857Z 19012KT 30/02 A3002 RMK A01 T02970020  RH  017%=      5-min Rain = 0
KSB1 261858Z 19012KT 30/02 A3002 RMK A01 T02990022  RH  017%=      5-min Rain = 0
KSB1 261859Z 20011KT 30/02 A3002 RMK A01 T03000021  RH  017%=      5-min Rain = 0
KSB1 261900Z 19011KT 30/02 A3002 RMK A01 T03000022  RH  017%=      5-min Rain = 0
KSB1 261901Z 18014G20KT 30/02 A3002 RMK A01 T03010022  RH  017%=      5-min Rain = 0
KSB1 261902Z 17015G20KT 30/02 A3001 RMK A01 T03020017  RH  016%=      5-min Rain = 0
KSB1 261903Z 18016KT 30/02 A3001 RMK A01 T03020016  RH  016%=      5-min Rain = 0
KSB1 261904Z 19016KT 30/02 A3001 RMK A01 T03000016  RH  016%=      5-min Rain = 0
KSB1 261905Z 19016KT 30/02 A3001 RMK A01 T02990018  RH  016%=      5-min Rain = 0
KSB1 261906Z 18014KT 30/02 A3001 RMK A01 T02980018  RH  017%=      5-min Rain = 0
KSB1 261907Z 18011G16KT 30/02 A3001 RMK A01 T02980019  RH  017%=      5-min Rain = 0
KSB1 261908Z 17015G21KT 30/02 A3001 RMK A01 T02980022  RH  017%=      5-min Rain = 0
KSB1 261909Z 18020KT 30/02 A3001 RMK A01 T03010019  RH  016%=      5-min Rain = 0
KSB1 261910Z 19016G21KT 30/01 A3001 RMK A01 T02990014  RH  016%=      5-min Rain = 0
KSB1 261911Z 17013KT 30/02 A3001 RMK A01 T02980015  RH  016%=      5-min Rain = 0
KSB1 261912Z 18014KT 30/02 A3001 RMK A01 T02970016  RH  016%=      5-min Rain = 0
KSB1 261913Z 17012KT 30/02 A3001 RMK A01 T02970017  RH  017%=      5-min Rain = 0
KSB1 261914Z 18016G22KT 30/02 A3001 RMK A01 T02990020  RH  017%=      5-min Rain = 0
KSB1 261915Z 17014G20KT 30/02 A3001 RMK A01 T02990019  RH  017%=      5-min Rain = 0
KSB1 261916Z 17011KT 30/02 A3001 RMK A01 T02980022  RH  017%=      5-min Rain = 0
KSB1 261917Z 18013G18KT 30/02 A3001 RMK A01 T03010022  RH  017%=      5-min Rain = 0
KSB1 261918Z 20015KT 30/02 A3001 RMK A01 T03030019  RH  016%=      5-min Rain = 0
KSB1 261919Z 19016KT 30/02 A3001 RMK A01 T03030020  RH  016%=      5-min Rain = 0
KSB1 261920Z 20022KT 30/02 A3001 RMK A01 T03030016  RH  016%=      5-min Rain = 0
KSB1 261921Z 21022G27KT 31/01 A30 RMK A01 T03050011  RH  015%=      5-min Rain = 0
KSB1 261922Z 21020KT 30/01 A30 RMK A01 T03040007  RH  015%=      5-min Rain = 0
KSB1 261923Z 20020G27KT 30/01 A3001 RMK A01 T03020007  RH  015%=      5-min Rain = 0
KSB1 261924Z 21020G25KT 30/01 A3001 RMK A01 T03020009  RH  015%=      5-min Rain = 0
KSB1 261925Z 21019KT 30/01 A30 RMK A01 T03020010  RH  015%=      5-min Rain = 0
KSB1 261926Z 20018KT 30/01 A30 RMK A01 T03000008  RH  015%=      5-min Rain = 0
KSB1 261927Z 20022KT 30/01 A30 RMK A01 T03010010  RH  015%=      5-min Rain = 0
KSB1 261928Z 21025G30KT 30/01 A30 RMK A01 T03010007  RH  015%=      5-min Rain = 0
KSB1 261929Z 21022G27KT 30/01 A30 RMK A01 T03000005  RH  015%=      5-min Rain = 0
KSB1 261930Z 22018KT 30/01 A30 RMK A01 T03000005  RH  015%=      5-min Rain = 0
KSB1 261931Z 21016KT 30/01 A30 RMK A01 T03000006  RH  015%=      5-min Rain = 0
KSB1 261932Z 20019G24KT 30/01 A30 RMK A01 T03020007  RH  015%=      5-min Rain = 0
KSB1 261933Z 19020G26KT 30/01 A30 RMK A01 T03040010  RH  015%=      5-min Rain = 0
KSB1 261934Z 21024G29KT 31/01 A30 RMK A01 T03090010  RH  015%=      5-min Rain = 0
KSB1 261935Z 20022G29KT 31/01 A30 RMK A01 T03070007  RH  015%=      5-min Rain = 0
KSB1 261936Z 20026KT 31/01 A30 RMK A01 T03060007  RH  015%=      5-min Rain = 0
KSB1 261937Z 20025KT 31/01 A30 RMK A01 T03070007  RH  015%=      5-min Rain = 0
KSB1 261938Z 21025G30KT 31/01 A2999 RMK A01 T03090008  RH  015%=      5-min Rain = 0
KSB1 261939Z 21024G29KT 31/01 A2999 RMK A01 T03070008  RH  015%=      5-min Rain = 0
KSB1 261940Z 21022KT 31/01 A2999 RMK A01 T03090010  RH  015%=      5-min Rain = 0
KSB1 261941Z 21021G26KT 31/01 A30 RMK A01 T03100011  RH  015%=      5-min Rain = 0
KSB1 261942Z 21024KT 31/01 A2999 RMK A01 T03110008  RH  014%=      5-min Rain = 0
KSB1 261943Z 21020KT 31/01 A2999 RMK A01 T03070008  RH  015%=      5-min Rain = 0
KSB1 261944Z 21019G25KT 31/01 A2999 RMK A01 T03070009  RH  015%=      5-min Rain = 0
KSB1 261945Z 22022G27KT 31/01 A2999 RMK A01 T03100012  RH  015%=      5-min Rain = 0
KSB1 261946Z 21019KT 31/01 A30 RMK A01 T03140009  RH  014%=      5-min Rain = 0
KSB1 261947Z 21018G23KT 31/01 A30 RMK A01 T03140009  RH  014%=      5-min Rain = 0
KSB1 261948Z 23022KT 31/01 A2999 RMK A01 T03110009  RH  014%=      5-min Rain = 0
KSB1 261949Z 23025G32KT 31/01 A2999 RMK A01 T03100010  RH  015%=      5-min Rain = 0
KSB1 261950Z 23023KT 31/01 A2999 RMK A01 T03100007  RH  014%=      5-min Rain = 0
KSB1 261951Z 21023G28KT 31/01 A2999 RMK A01 T03080010  RH  015%=      5-min Rain = 0
KSB1 261952Z 20026KT 31/01 A2999 RMK A01 T03120009  RH  014%=      5-min Rain = 0
KSB1 261953Z 20024KT 31/01 A2999 RMK A01 T03120007  RH  014%=      5-min Rain = 0
KSB1 261954Z 21022G30KT 31/01 A2999 RMK A01 T03110007  RH  014%=      5-min Rain = 0
KSB1 261955Z 20024KT 31/01 A2999 RMK A01 T03130008  RH  014%=      5-min Rain = 0
KSB1 261956Z 20024KT 31/01 A2999 RMK A01 T03130006  RH  014%=      5-min Rain = 0
KSB1 261957Z 20021G26KT 31/00 A2999 RMK A01 T03120004  RH  014%=      5-min Rain = 0
KSB1 261958Z 20025G32KT 31/01 A2999 RMK A01 T03130006  RH  014%=      5-min Rain = 0
KSB1 261959Z 20028KT 31/00 A2999 RMK A01 T03120004  RH  014%=      5-min Rain = 0
KSB1 262000Z 20025G30KT 31/00 A2999 RMK A01 T03090004  RH  014%=      5-min Rain = 0
KSB1 262001Z 22023G28KT 31/01 A2999 RMK A01 T03090005  RH  014%=      5-min Rain = 0
KSB1 262002Z 22024KT 31/00 A2999 RMK A01 T03070004  RH  014%=      5-min Rain = 0
KSB1 262003Z 23024G29KT 31/00 A2999 RMK A01 T03050003  RH  014%=      5-min Rain = 0
KSB1 262004Z 22027G33KT 30/00 A2998 RMK A01 T03040003  RH  014%=      5-min Rain = 0
KSB1 262005Z 21021KT 31/00 A2999 RMK A01 T03050003  RH  014%=      5-min Rain = 0
KSB1 262006Z 21020G25KT 31/01 A2999 RMK A01 T03060005  RH  014%=      5-min Rain = 0
KSB1 262007Z 22017KT 31/01 A2999 RMK A01 T03090007  RH  014%=      5-min Rain = 0
KSB1 262008Z 21015KT 31/01 A2999 RMK A01 T03110007  RH  014%=      5-min Rain = 0
KSB1 262009Z 22022KT 31/01 A2999 RMK A01 T03120008  RH  014%=      5-min Rain = 0
KSB1 262010Z 22021G26KT 31/01 A2999 RMK A01 T03110008  RH  014%=      5-min Rain = 0
KSB1 262011Z 22019G25KT 31/01 A2999 RMK A01 T03100008  RH  014%=      5-min Rain = 0
KSB1 262012Z 20016KT 31/01 A2999 RMK A01 T03110008  RH  014%=      5-min Rain = 0
KSB1 262013Z 19017KT 31/01 A2999 RMK A01 T03110006  RH  014%=      5-min Rain = 0
KSB1 262014Z 18021G26KT 31/01 A2999 RMK A01 T03110005  RH  014%=      5-min Rain = 0
KSB1 262015Z 18021KT 31/00 A2998 RMK A01 T03120002  RH  014%=      5-min Rain = 0
KSB1 262016Z 19018G23KT 31/00 A2998 RMK A01 T03120002  RH  014%=      5-min Rain = 0
KSB1 262017Z 19019KT 32/00 A2998 RMK A01 T03150002  RH  013%=      5-min Rain = 0
KSB1 262018Z 18022G27KT 32/00 A2998 RMK A01 T03180001  RH  013%=      5-min Rain = 0
KSB1 262019Z 20018KT 32/00 A2998 RMK A01 T03170000  RH  013%=      5-min Rain = 0
KSB1 262020Z 20016KT 31/00 A2998 RMK A01 T03140004  RH  014%=      5-min Rain = 0
KSB1 262021Z 21019G24KT 32/01 A2998 RMK A01 T03150005  RH  014%=      5-min Rain = 0
KSB1 262022Z 22024KT 32/01 A2998 RMK A01 T03160007  RH  014%=      5-min Rain = 0
KSB1 262023Z 22023KT 31/00 A2998 RMK A01 T03130001  RH  013%=      5-min Rain = 0
KSB1 262024Z 21025G30KT 31/00 A2998 RMK A01 T03090002  RH  014%=      5-min Rain = 0
KSB1 262025Z 20023KT 31/00 A2998 RMK A01 T03080001  RH  014%=      5-min Rain = 0
KSB1 262026Z 19018KT 31/00 A2999 RMK A01 T030700-0  RH  014%=      5-min Rain = 0
KSB1 262027Z 20017KT 31/00 A2998 RMK A01 T03080001  RH  014%=      5-min Rain = 0
KSB1 262028Z 21017KT 31/00 A2998 RMK A01 T03070001  RH  014%=      5-min Rain = 0
KSB1 262029Z 19016KT 31/00 A2998 RMK A01 T03050001  RH  014%=      5-min Rain = 0
KSB1 262030Z 20014KT 31/00 A2998 RMK A01 T03050002  RH  014%=      5-min Rain = 0
KSB1 262031Z 20019G26KT 31/01 A2998 RMK A01 T03100006  RH  014%=      5-min Rain = 0
KSB1 262032Z 19023G29KT 31/01 A2998 RMK A01 T03110005  RH  014%=      5-min Rain = 0
KSB1 262033Z 21025G30KT 31/00 A2998 RMK A01 T03130003  RH  014%=      5-min Rain = 0
KSB1 262034Z 22020KT 31/00 A2998 RMK A01 T03110001  RH  014%=      5-min Rain = 0
KSB1 262035Z 21019KT 31/00 A2998 RMK A01 T03100003  RH  014%=      5-min Rain = 0
KSB1 262036Z 21020KT 31/00 A2998 RMK A01 T03130004  RH  014%=      5-min Rain = 0
KSB1 262037Z 21020G25KT 31/00 A2998 RMK A01 T03130003  RH  014%=      5-min Rain = 0
KSB1 262038Z 22021KT 32/01 A2998 RMK A01 T03160006  RH  014%=      5-min Rain = 0
KSB1 262039Z 20021G26KT 32/00 A2998 RMK A01 T03160004  RH  014%=      5-min Rain = 0
KSB1 262040Z 21024G29KT 32/01 A2997 RMK A01 T03180007  RH  014%=      5-min Rain = 0
KSB1 262041Z 22024G30KT 32/00 A2997 RMK A01 T03170003  RH  013%=      5-min Rain = 0
KSB1 262042Z 19022KT 31/00 A2998 RMK A01 T03140003  RH  014%=      5-min Rain = 0
KSB1 262043Z 18021KT 31/00 A2998 RMK A01 T03140004  RH  014%=      5-min Rain = 0
KSB1 262044Z 19022G27KT 31/00 A2997 RMK A01 T03140004  RH  014%=      5-min Rain = 0
KSB1 262045Z 19019KT 31/00 A2997 RMK A01 T03140004  RH  014%=      5-min Rain = 0
KSB1 262046Z 18022KT 31/00 A2997 RMK A01 T03130003  RH  014%=      5-min Rain = 0
KSB1 262047Z 19018G23KT 31/00 A2997 RMK A01 T03140004  RH  014%=      5-min Rain = 0
KSB1 262048Z 18024KT 32/00 A2997 RMK A01 T03150003  RH  014%=      5-min Rain = 0
KSB1 262049Z 18021G28KT 32/00 A2997 RMK A01 T03150004  RH  014%=      5-min Rain = 0
KSB1 262050Z 19026G31KT 32/01 A2997 RMK A01 T03180005  RH  013%=      5-min Rain = 0
KSB1 262051Z 19029G37KT 32/00 A2997 RMK A01 T03170002  RH  013%=      5-min Rain = 0
KSB1 262052Z 19018G23KT 31/00 A2997 RMK A01 T03130001  RH  013%=      5-min Rain = 0
KSB1 262053Z 18019G24KT 31/00 A2997 RMK A01 T03120002  RH  014%=      5-min Rain = 0
KSB1 262054Z 19020KT 31/00 A2997 RMK A01 T03140004  RH  014%=      5-min Rain = 0
KSB1 262055Z 20015KT 32/01 A2997 RMK A01 T03170005  RH  014%=      5-min Rain = 0
KSB1 262056Z 20018KT 32/01 A2996 RMK A01 T03180005  RH  013%=      5-min Rain = 0
KSB1 262057Z 21023G28KT 32/00 A2996 RMK A01 T03170004  RH  013%=      5-min Rain = 0
KSB1 262058Z 21023G29KT 32/00 A2996 RMK A01 T03170003  RH  013%=      5-min Rain = 0
KSB1 262059Z 19021G26KT 32/00 A2996 RMK A01 T03170003  RH  013%=      5-min Rain = 0
KSB1 262100Z 20025KT 32/00 A2996 RMK A01 T03190004  RH  013%=      5-min Rain = 0
KSB1 262101Z 20019G24KT 32/00 A2996 RMK A01 T03190003  RH  013%=      5-min Rain = 0
KSB1 262102Z 19020KT 32/01 A2996 RMK A01 T03210005  RH  013%=      5-min Rain = 0
KSB1 262103Z 21018G24KT 32/00 A2996 RMK A01 T03210003  RH  013%=      5-min Rain = 0
KSB1 262104Z 21024G32KT 32/00 A2996 RMK A01 T03200002  RH  013%=      5-min Rain = 0
KSB1 262105Z 20024G31KT 32/00 A2996 RMK A01 T03200000  RH  013%=      5-min Rain = 0
KSB1 262106Z 20023G29KT 32/00 A2996 RMK A01 T032000-0  RH  013%=      5-min Rain = 0
KSB1 262107Z 21031G36KT 32/00 A2996 RMK A01 T032100-0  RH  013%=      5-min Rain = 0
KSB1 262108Z 21027KT 32/M00 A2996 RMK A01 T03191001  RH  013%=      5-min Rain = 0
KSB1 262109Z 21024KT 32/M00 A2996 RMK A01 T03181001  RH  013%=      5-min Rain = 0
KSB1 262110Z 21022KT 32/M00 A2996 RMK A01 T03151002  RH  013%=      5-min Rain = 0
KSB1 262111Z 22020KT 31/M00 A2996 RMK A01 T03141001  RH  013%=      5-min Rain = 0
KSB1 262112Z 22018KT 31/M00 A2996 RMK A01 T03131001  RH  013%=      5-min Rain = 0
KSB1 262113Z 21016KT 31/00 A2996 RMK A01 T03140002  RH  014%=      5-min Rain = 0
KSB1 262114Z 21017KT 32/01 A2996 RMK A01 T03200006  RH  013%=      5-min Rain = 0
KSB1 262115Z 21020G25KT 32/00 A2996 RMK A01 T03230003  RH  013%=      5-min Rain = 0
KSB1 262116Z 21018KT 32/00 A2996 RMK A01 T03180001  RH  013%=      5-min Rain = 0
KSB1 262117Z 21014KT 32/00 A2996 RMK A01 T03170004  RH  013%=      5-min Rain = 0
KSB1 262118Z 19018KT 32/00 A2996 RMK A01 T03180004  RH  013%=      5-min Rain = 0
KSB1 262119Z 19016KT 32/00 A2996 RMK A01 T03180002  RH  013%=      5-min Rain = 0
KSB1 262120Z 20019G24KT 32/00 A2996 RMK A01 T03170004  RH  013%=      5-min Rain = 0
KSB1 262121Z 20018G25KT 32/01 A2996 RMK A01 T03190006  RH  014%=      5-min Rain = 0
KSB1 262122Z 20025KT 32/01 A2996 RMK A01 T03230009  RH  013%=      5-min Rain = 0
KSB1 262123Z 19024KT 32/01 A2996 RMK A01 T03220006  RH  013%=      5-min Rain = 0
KSB1 262124Z 19019KT 32/00 A2996 RMK A01 T03170003  RH  013%=      5-min Rain = 0
KSB1 262125Z 17015KT 31/00 A2996 RMK A01 T03140003  RH  014%=      5-min Rain = 0
KSB1 262126Z 18014KT 31/01 A2996 RMK A01 T03130005  RH  014%=      5-min Rain = 0
KSB1 262127Z 19018KT 32/01 A2996 RMK A01 T03160007  RH  014%=      5-min Rain = 0
KSB1 262128Z 19024KT 32/01 A2996 RMK A01 T03180007  RH  014%=      5-min Rain = 0
KSB1 262129Z 18022KT 32/00 A2996 RMK A01 T03170004  RH  013%=      5-min Rain = 0
KSB1 262130Z 19023KT 32/00 A2996 RMK A01 T03160003  RH  013%=      5-min Rain = 0
KSB1 262131Z 19017KT 32/00 A2996 RMK A01 T03150004  RH  014%=      5-min Rain = 0
KSB1 262132Z 19013KT 32/01 A2995 RMK A01 T03150005  RH  014%=      5-min Rain = 0
KSB1 262133Z 19015G21KT 32/01 A2995 RMK A01 T03180005  RH  014%=      5-min Rain = 0
KSB1 262134Z 18019G27KT 32/00 A2995 RMK A01 T03180004  RH  013%=      5-min Rain = 0
KSB1 262135Z 19020KT 32/00 A2995 RMK A01 T03160002  RH  013%=      5-min Rain = 0
KSB1 262136Z 19023G28KT 31/00 A2995 RMK A01 T03140002  RH  013%=      5-min Rain = 0
KSB1 262137Z 19022KT 31/00 A2995 RMK A01 T03110000  RH  014%=      5-min Rain = 0
KSB1 262138Z 19020KT 31/00 A2995 RMK A01 T03100000  RH  014%=      5-min Rain = 0
KSB1 262139Z 21020KT 31/00 A2995 RMK A01 T03100001  RH  014%=      5-min Rain = 0
KSB1 262140Z 21019KT 31/00 A2995 RMK A01 T03120002  RH  014%=      5-min Rain = 0
KSB1 262141Z 22017KT 31/01 A2995 RMK A01 T03140005  RH  014%=      5-min Rain = 0
KSB1 262142Z 21017KT 32/01 A2995 RMK A01 T03150006  RH  014%=      5-min Rain = 0
KSB1 262143Z 18015G20KT 32/01 A2995 RMK A01 T03150006  RH  014%=      5-min Rain = 0
KSB1 262144Z 19014KT 32/01 A2995 RMK A01 T03160005  RH  014%=      5-min Rain = 0
KSB1 262145Z 19014G19KT 32/01 A2994 RMK A01 T03150005  RH  014%=      5-min Rain = 0
KSB1 262146Z 19015KT 31/00 A2995 RMK A01 T03140004  RH  014%=      5-min Rain = 0
KSB1 262147Z 19017KT 31/00 A2994 RMK A01 T03110003  RH  014%=      5-min Rain = 0
KSB1 262148Z 19018G23KT 31/01 A2994 RMK A01 T03100005  RH  014%=      5-min Rain = 0
KSB1 262149Z 19018KT 31/01 A2994 RMK A01 T03110006  RH  014%=      5-min Rain = 0
KSB1 262150Z 18013KT 31/01 A2994 RMK A01 T03100005  RH  014%=      5-min Rain = 0
KSB1 262151Z 18011KT 31/01 A2994 RMK A01 T03100005  RH  014%=      5-min Rain = 0
KSB1 262152Z 18011KT 31/01 A2994 RMK A01 T03120006  RH  014%=      5-min Rain = 0
KSB1 262153Z 19014KT 31/01 A2994 RMK A01 T03130005  RH  014%=      5-min Rain = 0
KSB1 262154Z 19016KT 31/01 A2994 RMK A01 T03130005  RH  014%=      5-min Rain = 0
KSB1 262155Z 19020G26KT 31/00 A2994 RMK A01 T03130003  RH  014%=      5-min Rain = 0
KSB1 262156Z 20018KT 31/00 A2994 RMK A01 T03120001  RH  014%=      5-min Rain = 0
KSB1 262157Z 21015KT 31/00 A2994 RMK A01 T03110003  RH  014%=      5-min Rain = 0
KSB1 262158Z 19016KT 31/01 A2994 RMK A01 T03120006  RH  014%=      5-min Rain = 0
KSB1 262159Z 19021G26KT 31/00 A2994 RMK A01 T03140004  RH  014%=      5-min Rain = 0
KSB1 262200Z 19023G31KT 31/00 A2994 RMK A01 T03120004  RH  014%=      5-min Rain = 0
KSB1 262201Z 20024G29KT 31/01 A2994 RMK A01 T03140006  RH  014%=      5-min Rain = 0
KSB1 262202Z 21018KT 32/01 A2994 RMK A01 T03150005  RH  014%=      5-min Rain = 0
KSB1 262203Z 20017KT 32/01 A2994 RMK A01 T03150005  RH  014%=      5-min Rain = 0
KSB1 262204Z 19016KT 32/01 A2994 RMK A01 T03150005  RH  014%=      5-min Rain = 0
KSB1 262205Z 19017KT 31/00 A2994 RMK A01 T03140004  RH  014%=      5-min Rain = 0
KSB1 262206Z 19015G20KT 31/00 A2993 RMK A01 T03120004  RH  014%=      5-min Rain = 0
KSB1 262207Z 19018KT 31/01 A2993 RMK A01 T03130006  RH  014%=      5-min Rain = 0
KSB1 262208Z 21016KT 31/01 A2993 RMK A01 T03130006  RH  014%=      5-min Rain = 0
KSB1 262209Z 21020G25KT 31/00 A2993 RMK A01 T03140004  RH  014%=      5-min Rain = 0
KSB1 262210Z 21021KT 31/00 A2993 RMK A01 T03140002  RH  014%=      5-min Rain = 0
KSB1 262211Z 22016KT 31/00 A2993 RMK A01 T03130002  RH  014%=      5-min Rain = 0
KSB1 262212Z 22017KT 31/00 A2993 RMK A01 T03130003  RH  014%=      5-min Rain = 0
KSB1 262213Z 21016KT 31/00 A2993 RMK A01 T03130004  RH  014%=      5-min Rain = 0
KSB1 262214Z 21019G24KT 31/00 A2993 RMK A01 T03130003  RH  014%=      5-min Rain = 0
KSB1 262215Z 21020G25KT 31/00 A2992 RMK A01 T03130002  RH  014%=      5-min Rain = 0
KSB1 262216Z 21019G24KT 31/00 A2992 RMK A01 T03120003  RH  014%=      5-min Rain = 0
KSB1 262217Z 22020KT 31/00 A2992 RMK A01 T03120004  RH  014%=      5-min Rain = 0
KSB1 262218Z 21020G25KT 31/01 A2992 RMK A01 T03110005  RH  014%=      5-min Rain = 0
KSB1 262219Z 21021KT 31/00 A2992 RMK A01 T03120004  RH  014%=      5-min Rain = 0
KSB1 262220Z 20015KT 31/00 A2992 RMK A01 T03120003  RH  014%=      5-min Rain = 0
KSB1 262221Z 20012KT 31/01 A2992 RMK A01 T03130005  RH  014%=      5-min Rain = 0
KSB1 262222Z 21013KT 32/01 A2992 RMK A01 T03170008  RH  014%=      5-min Rain = 0
KSB1 262223Z 20021G29KT 32/01 A2992 RMK A01 T03190008  RH  014%=      5-min Rain = 0
KSB1 262224Z 20025KT 32/00 A2992 RMK A01 T03170004  RH  013%=      5-min Rain = 0
KSB1 262225Z 20020G26KT 31/00 A2992 RMK A01 T03130002  RH  014%=      5-min Rain = 0
KSB1 262226Z 20019G24KT 31/00 A2992 RMK A01 T03110003  RH  014%=      5-min Rain = 0
KSB1 262227Z 20018KT 31/00 A2992 RMK A01 T03130004  RH  014%=      5-min Rain = 0
KSB1 262228Z 20017KT 32/00 A2992 RMK A01 T03150004  RH  014%=      5-min Rain = 0
KSB1 262229Z 20019KT 32/01 A2992 RMK A01 T03150005  RH  014%=      5-min Rain = 0
KSB1 262230Z 19016KT 32/01 A2992 RMK A01 T03150006  RH  014%=      5-min Rain = 0
KSB1 262231Z 18015KT 31/01 A2992 RMK A01 T03140006  RH  014%=      5-min Rain = 0
KSB1 262232Z 19016KT 31/01 A2992 RMK A01 T03130006  RH  014%=      5-min Rain = 0
KSB1 262233Z 20016KT 31/00 A2992 RMK A01 T03110004  RH  014%=      5-min Rain = 0
KSB1 262234Z 19012KT 31/00 A2992 RMK A01 T03090004  RH  014%=      5-min Rain = 0
KSB1 262235Z 18013KT 31/00 A2992 RMK A01 T03090004  RH  014%=      5-min Rain = 0
KSB1 262236Z 18012KT 31/01 A2992 RMK A01 T03100005  RH  014%=      5-min Rain = 0
KSB1 262237Z 17014KT 31/01 A2992 RMK A01 T03120005  RH  014%=      5-min Rain = 0
KSB1 262238Z 17018KT 32/00 A2992 RMK A01 T03150004  RH  014%=      5-min Rain = 0
KSB1 262239Z 19018KT 32/00 A2992 RMK A01 T03160004  RH  014%=      5-min Rain = 0
KSB1 262240Z 20016KT 32/01 A2991 RMK A01 T03150005  RH  014%=      5-min Rain = 0
KSB1 262241Z 19014KT 32/01 A2991 RMK A01 T03150005  RH  014%=      5-min Rain = 0
KSB1 262242Z 20015KT 32/01 A2991 RMK A01 T03160006  RH  014%=      5-min Rain = 0
KSB1 262243Z 19017KT 32/01 A2991 RMK A01 T03180006  RH  013%=      5-min Rain = 0
KSB1 262244Z 18015G21KT 32/01 A2991 RMK A01 T03180005  RH  013%=      5-min Rain = 0
KSB1 262245Z 19020G25KT 32/00 A2991 RMK A01 T03170004  RH  013%=      5-min Rain = 0
KSB1 262246Z 20019KT 32/00 A2991 RMK A01 T03190004  RH  013%=      5-min Rain = 0
KSB1 262247Z 20020KT 32/01 A299 RMK A01 T03220007  RH  013%=      5-min Rain = 0
KSB1 262248Z 19019G25KT 33/00 A299 RMK A01 T03250004  RH  013%=      5-min Rain = 0
KSB1 262249Z 19021KT 33/M00 A299 RMK A01 T03261004  RH  012%=      5-min Rain = 0
KSB1 262250Z 20018KT 33/M00 A2991 RMK A01 T03251004  RH  012%=      5-min Rain = 0
KSB1 262251Z 20015G21KT 32/M00 A299 RMK A01 T03231001  RH  013%=      5-min Rain = 0
KSB1 262252Z 20014KT 33/01 A2991 RMK A01 T03250005  RH  013%=      5-min Rain = 0
KSB1 262253Z 20020G25KT 33/01 A299 RMK A01 T03260006  RH  013%=      5-min Rain = 0
KSB1 262254Z 19020KT 33/00 A2991 RMK A01 T03260003  RH  013%=      5-min Rain = 0
KSB1 262255Z 19020KT 33/00 A299 RMK A01 T03250001  RH  013%=      5-min Rain = 0
KSB1 262256Z 20017KT 32/00 A299 RMK A01 T03240000  RH  013%=      5-min Rain = 0
KSB1 262257Z 19017G22KT 32/M00 A299 RMK A01 T03241002  RH  012%=      5-min Rain = 0
KSB1 262258Z 19019KT 32/M00 A299 RMK A01 T03221003  RH  012%=      5-min Rain = 0
KSB1 262259Z 21015KT 32/M00 A299 RMK A01 T03211002  RH  013%=      5-min Rain = 0
KSB1 262300Z 20016KT 32/M00 A299 RMK A01 T03221003  RH  012%=      5-min Rain = 0
KSB1 262301Z 20017KT 32/M00 A299 RMK A01 T03231004  RH  012%=      5-min Rain = 0
KSB1 262302Z 19015KT 32/M00 A299 RMK A01 T03241004  RH  012%=      5-min Rain = 0
KSB1 262303Z 21014KT 32/M01 A299 RMK A01 T03241005  RH  012%=      5-min Rain = 0
KSB1 262304Z 22014KT 32/M00 A299 RMK A01 T03231003  RH  012%=      5-min Rain = 0
KSB1 262305Z 21012KT 32/M00 A299 RMK A01 T03241001  RH  012%=      5-min Rain = 0
KSB1 262306Z 22012KT 33/M00 A299 RMK A01 T03251001  RH  012%=      5-min Rain = 0
KSB1 262307Z 21010KT 33/00 A299 RMK A01 T03250000  RH  012%=      5-min Rain = 0
KSB1 262308Z 18011KT 33/M00 A299 RMK A01 T03251002  RH  012%=      5-min Rain = 0
KSB1 262309Z 19016KT 32/00 A299 RMK A01 T03240000  RH  013%=      5-min Rain = 0
KSB1 262310Z 19016KT 32/01 A299 RMK A01 T03230005  RH  013%=      5-min Rain = 0
KSB1 262311Z 19015KT 32/00 A299 RMK A01 T03200003  RH  013%=      5-min Rain = 0
KSB1 262312Z 18012KT 32/00 A299 RMK A01 T03170002  RH  013%=      5-min Rain = 0
KSB1 262313Z 17014G21KT 32/00 A299 RMK A01 T03180002  RH  013%=      5-min Rain = 0
KSB1 262314Z 18012KT 32/00 A299 RMK A01 T03180001  RH  013%=      5-min Rain = 0
KSB1 262315Z 19014KT 32/00 A299 RMK A01 T03180002  RH  013%=      5-min Rain = 0
KSB1 262316Z 19012KT 32/00 A299 RMK A01 T03170004  RH  013%=      5-min Rain = 0
KSB1 262317Z 19013KT 32/00 A299 RMK A01 T03180002  RH  013%=      5-min Rain = 0
KSB1 262318Z 18013KT 32/00 A299 RMK A01 T03170000  RH  013%=      5-min Rain = 0
KSB1 262319Z 19012KT 32/00 A299 RMK A01 T03160003  RH  013%=      5-min Rain = 0
KSB1 262320Z 19011KT 32/00 A299 RMK A01 T03160003  RH  013%=      5-min Rain = 0
KSB1 262321Z 20012KT 32/01 A299 RMK A01 T03160005  RH  014%=      5-min Rain = 0
KSB1 262322Z 20017KT 32/00 A299 RMK A01 T03170004  RH  013%=      5-min Rain = 0
KSB1 262323Z 19014G21KT 32/01 A299 RMK A01 T03180005  RH  014%=      5-min Rain = 0
KSB1 262324Z 19019KT 32/00 A299 RMK A01 T03170004  RH  013%=      5-min Rain = 0
KSB1 262325Z 18017KT 32/00 A2989 RMK A01 T03160002  RH  013%=      5-min Rain = 0
KSB1 262326Z 19017KT 32/00 A2989 RMK A01 T03160002  RH  013%=      5-min Rain = 0
KSB1 262327Z 20015KT 32/00 A2989 RMK A01 T03160002  RH  013%=      5-min Rain = 0
KSB1 262328Z 19013KT 32/00 A2989 RMK A01 T03170004  RH  013%=      5-min Rain = 0
KSB1 262329Z 18013KT 32/00 A2989 RMK A01 T03170002  RH  013%=      5-min Rain = 0
KSB1 262330Z 18011KT 32/00 A2989 RMK A01 T03170003  RH  013%=      5-min Rain = 0
KSB1 262331Z 19014KT 32/00 A2989 RMK A01 T03180004  RH  013%=      5-min Rain = 0
KSB1 262332Z 18014KT 32/00 A2989 RMK A01 T03200004  RH  013%=      5-min Rain = 0
KSB1 262333Z 19015KT 32/00 A2989 RMK A01 T03190003  RH  013%=      5-min Rain = 0
KSB1 262334Z 19017KT 32/00 A2989 RMK A01 T03190003  RH  013%=      5-min Rain = 0
KSB1 262335Z 18018KT 32/00 A2989 RMK A01 T03190003  RH  013%=      5-min Rain = 0
KSB1 262336Z 19017KT 32/00 A2989 RMK A01 T03210001  RH  013%=      5-min Rain = 0
KSB1 262337Z 19015KT 32/00 A2989 RMK A01 T03210001  RH  013%=      5-min Rain = 0
KSB1 262338Z 18012KT 32/00 A2989 RMK A01 T03210002  RH  013%=      5-min Rain = 0
KSB1 262339Z 18012KT 32/00 A2989 RMK A01 T03220004  RH  013%=      5-min Rain = 0
KSB1 262340Z 18012KT 32/00 A2989 RMK A01 T03230001  RH  013%=      5-min Rain = 0
KSB1 262341Z 19015KT 32/00 A2989 RMK A01 T03220002  RH  013%=      5-min Rain = 0
KSB1 262342Z 19016G21KT 32/00 A2989 RMK A01 T03220001  RH  013%=      5-min Rain = 0
KSB1 262343Z 20013KT 32/00 A2989 RMK A01 T03220002  RH  013%=      5-min Rain = 0
KSB1 262344Z 21017G27KT 32/00 A2988 RMK A01 T03230003  RH  013%=      5-min Rain = 0
KSB1 262345Z 20018KT 32/M00 A2988 RMK A01 T03231001  RH  013%=      5-min Rain = 0
KSB1 262346Z 21015KT 32/00 A2988 RMK A01 T032300-0  RH  013%=      5-min Rain = 0
KSB1 262347Z 21018KT 32/00 A2988 RMK A01 T03240001  RH  013%=      5-min Rain = 0
KSB1 262348Z 20018G23KT 32/00 A2988 RMK A01 T03240000  RH  013%=      5-min Rain = 0
KSB1 262349Z 20019KT 32/00 A2988 RMK A01 T032400-0  RH  013%=      5-min Rain = 0
KSB1 262350Z 20019KT 32/M00 A2988 RMK A01 T03231003  RH  012%=      5-min Rain = 0
KSB1 262351Z 21019KT 32/M00 A2988 RMK A01 T03211004  RH  012%=      5-min Rain = 0
KSB1 262352Z 21018KT 32/M00 A2988 RMK A01 T03211002  RH  013%=      5-min Rain = 0
KSB1 262353Z 22016KT 32/M00 A2988 RMK A01 T03221002  RH  013%=      5-min Rain = 0
KSB1 262354Z 22015G20KT 32/00 A2988 RMK A01 T03230001  RH  013%=      5-min Rain = 0
KSB1 262355Z 21015KT 32/00 A2988 RMK A01 T032400-0  RH  013%=      5-min Rain = 0
KSB1 262356Z 20015KT 32/00 A2988 RMK A01 T03240001  RH  013%=      5-min Rain = 0
KSB1 262357Z 19016G22KT 33/M00 A2988 RMK A01 T03251001  RH  012%=      5-min Rain = 0
KSB1 262358Z 19019KT 32/M00 A2988 RMK A01 T03241001  RH  012%=      5-min Rain = 0
KSB1 262359Z 21017KT 32/M00 A2988 RMK A01 T03221002  RH  012%=      5-min Rain = 0
KSB1 270000Z 20019KT 32/M00 A2988 RMK A01 T03231003  RH  012%=      5-min Rain = 0
KSB1 270001Z 20016KT 32/M00 A2988 RMK A01 T03221003  RH  012%=      5-min Rain = 0
KSB1 270002Z 21016KT 32/M00 A2988 RMK A01 T03221001  RH  013%=      5-min Rain = 0
KSB1 270003Z 21017KT 32/00 A2988 RMK A01 T032400-0  RH  013%=      5-min Rain = 0
KSB1 270004Z 21021G26KT 32/M00 A2988 RMK A01 T03241003  RH  012%=      5-min Rain = 0
KSB1 270005Z 22021KT 32/M01 A2988 RMK A01 T03241006  RH  012%=      5-min Rain = 0
KSB1 270006Z 22019KT 32/M01 A2988 RMK A01 T03231006  RH  012%=      5-min Rain = 0
KSB1 270007Z 22018KT 32/M01 A2988 RMK A01 T03221005  RH  012%=      5-min Rain = 0
KSB1 270008Z 23018KT 32/M01 A2989 RMK A01 T03221007  RH  012%=      5-min Rain = 0
KSB1 270009Z 23020KT 32/M04 A2989 RMK A01 T03221035  RH  010%=      5-min Rain = 0
KSB1 270010Z 24022KT 32/M05 A2988 RMK A01 T03231046  RH  009%=      5-min Rain = 0
KSB1 270011Z 26023G28KT 32/M05 A2988 RMK A01 T03231052  RH  009%=      5-min Rain = 0
KSB1 270012Z 25023G29KT 32/M06 A2989 RMK A01 T03241055  RH  008%=      5-min Rain = 0
KSB1 270013Z 25021KT 32/M06 A2989 RMK A01 T03241055  RH  008%=      5-min Rain = 0
KSB1 270014Z 25019KT 33/M06 A2989 RMK A01 T03251056  RH  008%=      5-min Rain = 0
KSB1 270015Z 25018G23KT 33/M06 A2989 RMK A01 T03251055  RH  008%=      5-min Rain = 0
KSB1 270016Z 25017G24KT 33/M05 A2988 RMK A01 T03251052  RH  008%=      5-min Rain = 0
KSB1 270017Z 25019KT 33/M05 A2988 RMK A01 T03261052  RH  009%=      5-min Rain = 0
KSB1 270018Z 24016KT 33/M05 A2989 RMK A01 T03251051  RH  009%=      5-min Rain = 0
KSB1 270019Z 24014G20KT 33/M05 A2989 RMK A01 T03251049  RH  009%=      5-min Rain = 0
KSB1 270020Z 25017KT 33/M05 A2989 RMK A01 T03261049  RH  009%=      5-min Rain = 0
KSB1 270021Z 25016KT 33/M05 A2989 RMK A01 T03251052  RH  009%=      5-min Rain = 0
KSB1 270022Z 25016G21KT 33/M05 A2989 RMK A01 T03251050  RH  009%=      5-min Rain = 0
KSB1 270023Z 24024KT 33/M05 A2989 RMK A01 T03251050  RH  009%=      5-min Rain = 0
KSB1 270024Z 24020G25KT 32/M05 A2989 RMK A01 T03241049  RH  009%=      5-min Rain = 0
KSB1 270025Z 23022KT 32/M05 A2988 RMK A01 T03231048  RH  009%=      5-min Rain = 0
KSB1 270026Z 23020KT 32/M05 A2988 RMK A01 T03221049  RH  009%=      5-min Rain = 0
KSB1 270027Z 26020G26KT 32/M05 A2989 RMK A01 T03221049  RH  009%=      5-min Rain = 0
KSB1 270028Z 25022G27KT 32/M05 A2988 RMK A01 T03221049  RH  009%=      5-min Rain = 0
KSB1 270029Z 25017G24KT 32/M05 A2989 RMK A01 T03221050  RH  009%=      5-min Rain = 0
KSB1 270030Z 25021KT 32/M05 A2989 RMK A01 T03221048  RH  009%=      5-min Rain = 0
KSB1 270031Z 25019G25KT 32/M05 A2989 RMK A01 T03211049  RH  009%=      5-min Rain = 0
KSB1 270032Z 25017KT 32/M05 A2989 RMK A01 T03211049  RH  009%=      5-min Rain = 0
KSB1 270033Z 25016KT 32/M05 A2989 RMK A01 T03211048  RH  009%=      5-min Rain = 0
KSB1 270034Z 24019G24KT 32/M05 A2989 RMK A01 T03211048  RH  009%=      5-min Rain = 0
KSB1 270035Z 25016G22KT 32/M05 A2989 RMK A01 T03211048  RH  009%=      5-min Rain = 0
KSB1 270036Z 27014G19KT 32/M05 A2989 RMK A01 T03211049  RH  009%=      5-min Rain = 0
KSB1 270037Z 27020G26KT 32/M05 A2989 RMK A01 T03211049  RH  009%=      5-min Rain = 0
KSB1 270038Z 25021KT 32/M05 A2989 RMK A01 T03201050  RH  009%=      5-min Rain = 0
KSB1 270039Z 26019G26KT 32/M05 A2989 RMK A01 T03201050  RH  009%=      5-min Rain = 0
KSB1 270040Z 25017KT 32/M05 A2989 RMK A01 T03191050  RH  009%=      5-min Rain = 0
KSB1 270041Z 26021G27KT 32/M05 A2989 RMK A01 T03191050  RH  009%=      5-min Rain = 0
KSB1 270042Z 26023KT 32/M05 A2989 RMK A01 T03191050  RH  009%=      5-min Rain = 0
KSB1 270043Z 25023G28KT 32/M05 A2989 RMK A01 T03181051  RH  009%=      5-min Rain = 0
KSB1 270044Z 25023KT 32/M05 A2989 RMK A01 T03181048  RH  009%=      5-min Rain = 0
KSB1 270045Z 25018G23KT 32/M05 A2989 RMK A01 T03171047  RH  009%=      5-min Rain = 0
KSB1 270046Z 25017KT 32/M05 A2989 RMK A01 T03171047  RH  009%=      5-min Rain = 0
KSB1 270047Z 25014G20KT 32/M05 A2989 RMK A01 T03171045  RH  009%=      5-min Rain = 0
KSB1 270048Z 25018KT 32/M05 A2989 RMK A01 T03171045  RH  009%=      5-min Rain = 0
KSB1 270049Z 25017KT 32/M05 A2989 RMK A01 T03171045  RH  009%=      5-min Rain = 0
KSB1 270050Z 24018KT 32/M04 A2989 RMK A01 T03161043  RH  010%=      5-min Rain = 0
KSB1 270051Z 26013KT 32/M04 A2989 RMK A01 T03161043  RH  010%=      5-min Rain = 0
KSB1 270052Z 27012KT 32/M04 A2989 RMK A01 T03151044  RH  010%=      5-min Rain = 0
KSB1 270053Z 26014KT 32/M04 A2989 RMK A01 T03161043  RH  010%=      5-min Rain = 0
KSB1 270054Z 26014KT 32/M04 A2989 RMK A01 T03161043  RH  010%=      5-min Rain = 0
KSB1 270055Z 25020G25KT 32/M04 A299 RMK A01 T03151044  RH  010%=      5-min Rain = 0
KSB1 270056Z 26022KT 32/M05 A2989 RMK A01 T03151046  RH  009%=      5-min Rain = 0
KSB1 270057Z 25020G25KT 32/M05 A2989 RMK A01 T03151046  RH  009%=      5-min Rain = 0
KSB1 270058Z 25019KT 32/M05 A2989 RMK A01 T03151045  RH  009%=      5-min Rain = 0
KSB1 270059Z 25018KT 32/M05 A2989 RMK A01 T03151045  RH  010%=      5-min Rain = 0
KSB1 270100Z 25017G22KT 32/M04 A2989 RMK A01 T03151044  RH  010%=      5-min Rain = 0
KSB1 270101Z 25016KT 31/M04 A2989 RMK A01 T03141043  RH  010%=      5-min Rain = 0
KSB1 270102Z 23021KT 31/M04 A2989 RMK A01 T03141042  RH  010%=      5-min Rain = 0
KSB1 270103Z 24018KT 31/M04 A2989 RMK A01 T03141044  RH  010%=      5-min Rain = 0
KSB1 270104Z 26017G22KT 31/M04 A299 RMK A01 T03131042  RH  010%=      5-min Rain = 0
KSB1 270105Z 26018KT 31/M04 A299 RMK A01 T03131041  RH  010%=      5-min Rain = 0
KSB1 270106Z 26019KT 31/M04 A299 RMK A01 T03131043  RH  010%=      5-min Rain = 0
KSB1 270107Z 25017G22KT 31/M05 A299 RMK A01 T03131046  RH  010%=      5-min Rain = 0
KSB1 270108Z 24018KT 31/M05 A299 RMK A01 T03131046  RH  010%=      5-min Rain = 0
KSB1 270109Z 25021KT 31/M05 A299 RMK A01 T03131046  RH  010%=      5-min Rain = 0
KSB1 270110Z 25018KT 31/M05 A299 RMK A01 T03121048  RH  009%=      5-min Rain = 0
KSB1 270111Z 24019KT 31/M05 A2989 RMK A01 T03111049  RH  009%=      5-min Rain = 0
KSB1 270112Z 24025G30KT 31/M05 A2989 RMK A01 T03111047  RH  010%=      5-min Rain = 0
KSB1 270113Z 25021KT 31/M05 A299 RMK A01 T03111045  RH  010%=      5-min Rain = 0
KSB1 270114Z 26015KT 31/M04 A299 RMK A01 T03101044  RH  010%=      5-min Rain = 0
KSB1 270115Z 26015KT 31/M05 A299 RMK A01 T03101045  RH  010%=      5-min Rain = 0
KSB1 270116Z 25015KT 31/M04 A299 RMK A01 T03101044  RH  010%=      5-min Rain = 0
KSB1 270117Z 25015KT 31/M04 A299 RMK A01 T03101044  RH  010%=      5-min Rain = 0
KSB1 270118Z 25012KT 31/M04 A299 RMK A01 T03091043  RH  010%=      5-min Rain = 0
KSB1 270119Z 25014KT 31/M04 A299 RMK A01 T03091043  RH  010%=      5-min Rain = 0
KSB1 270120Z 25019KT 31/M04 A299 RMK A01 T03081043  RH  010%=      5-min Rain = 0
KSB1 270121Z 26018KT 31/M04 A299 RMK A01 T03091042  RH  010%=      5-min Rain = 0
KSB1 270122Z 23016KT 31/M04 A299 RMK A01 T03091043  RH  010%=      5-min Rain = 0
KSB1 270123Z 24017G22KT 31/M04 A299 RMK A01 T03091043  RH  010%=      5-min Rain = 0
KSB1 270124Z 25014KT 31/M04 A299 RMK A01 T03091043  RH  010%=      5-min Rain = 0
KSB1 270125Z 25012KT 31/M04 A299 RMK A01 T03091042  RH  010%=      5-min Rain = 0
KSB1 270126Z 26011KT 31/M04 A299 RMK A01 T03081041  RH  010%=      5-min Rain = 0
KSB1 270127Z 27015KT 31/M04 A299 RMK A01 T03071041  RH  010%=      5-min Rain = 0
KSB1 270128Z 26015KT 31/M04 A299 RMK A01 T03061044  RH  010%=      5-min Rain = 0
KSB1 270129Z 26012KT 31/M05 A299 RMK A01 T03061045  RH  010%=      5-min Rain = 0
KSB1 270130Z 26015KT 31/M05 A299 RMK A01 T03051045  RH  010%=      5-min Rain = 0
KSB1 270131Z 26011KT 31/M05 A299 RMK A01 T03051046  RH  010%=      5-min Rain = 0
KSB1 270132Z 27015KT 31/M05 A299 RMK A01 T03051047  RH  010%=      5-min Rain = 0
KSB1 270133Z 27017KT 31/M05 A299 RMK A01 T03051048  RH  010%=      5-min Rain = 0
KSB1 270134Z 26018KT 31/M05 A299 RMK A01 T03051049  RH  010%=      5-min Rain = 0
KSB1 270135Z 26020G25KT 31/M05 A299 RMK A01 T03051050  RH  010%=      5-min Rain = 0
KSB1 270136Z 26020KT 31/M05 A299 RMK A01 T03061052  RH  010%=      5-min Rain = 0
KSB1 270137Z 25017G22KT 31/M05 A299 RMK A01 T03061051  RH  010%=      5-min Rain = 0
KSB1 270138Z 26015G20KT 31/M05 A299 RMK A01 T03051052  RH  010%=      5-min Rain = 0
KSB1 270139Z 26018KT 31/M05 A299 RMK A01 T03051052  RH  010%=      5-min Rain = 0
KSB1 270140Z 27016KT 31/M05 A299 RMK A01 T03051052  RH  010%=      5-min Rain = 0
KSB1 270141Z 26014KT 31/M05 A299 RMK A01 T03051052  RH  010%=      5-min Rain = 0
KSB1 270142Z 27015G20KT 30/M05 A299 RMK A01 T03041051  RH  010%=      5-min Rain = 0
KSB1 270143Z 27015KT 30/M05 A299 RMK A01 T03031052  RH  010%=      5-min Rain = 0
KSB1 270144Z 27016KT 30/M05 A299 RMK A01 T03031052  RH  010%=      5-min Rain = 0
KSB1 270145Z 27017G22KT 30/M05 A299 RMK A01 T03031052  RH  010%=      5-min Rain = 0
KSB1 270146Z 27017KT 30/M05 A2991 RMK A01 T03041053  RH  010%=      5-min Rain = 0
KSB1 270147Z 26017KT 30/M05 A2991 RMK A01 T03041053  RH  009%=      5-min Rain = 0
KSB1 270148Z 26013KT 30/M05 A2991 RMK A01 T03031053  RH  010%=      5-min Rain = 0
KSB1 270149Z 27016KT 30/M05 A2991 RMK A01 T03021053  RH  010%=      5-min Rain = 0
KSB1 270150Z 27014G19KT 30/M05 A2991 RMK A01 T03021054  RH  010%=      5-min Rain = 0
KSB1 270151Z 27013G18KT 30/M06 A2991 RMK A01 T03021055  RH  009%=      5-min Rain = 0
KSB1 270152Z 25017KT 30/M06 A2991 RMK A01 T03021055  RH  009%=      5-min Rain = 0
KSB1 270153Z 26013KT 30/M06 A2991 RMK A01 T03011056  RH  009%=      5-min Rain = 0
KSB1 270154Z 27011KT 30/M06 A2991 RMK A01 T03011056  RH  009%=      5-min Rain = 0
KSB1 270155Z 28010KT 30/M06 A2991 RMK A01 T03001057  RH  009%=      5-min Rain = 0
KSB1 270156Z 30009KT 30/M06 A2991 RMK A01 T02981060  RH  009%=      5-min Rain = 0
KSB1 270157Z 29009KT 30/M06 A2991 RMK A01 T02971062  RH  009%=      5-min Rain = 0
KSB1 270158Z 30012KT 30/M07 A2991 RMK A01 T02961066  RH  009%=      5-min Rain = 0
KSB1 270159Z 29016G21KT 30/M07 A2991 RMK A01 T02961071  RH  009%=      5-min Rain = 0
KSB1 270200Z 29015KT 30/M08 A2991 RMK A01 T02961076  RH  008%=      5-min Rain = 0
KSB1 270201Z 29013G18KT 30/M08 A2991 RMK A01 T02961079  RH  008%=      5-min Rain = 0
KSB1 270202Z 29011KT 30/M08 A2991 RMK A01 T02961080  RH  008%=      5-min Rain = 0
KSB1 270203Z 30009KT 30/M08 A2991 RMK A01 T02961079  RH  008%=      5-min Rain = 0
KSB1 270204Z 30007KT 30/M08 A2992 RMK A01 T02961078  RH  008%=      5-min Rain = 0
KSB1 270205Z 29010KT 29/M08 A2992 RMK A01 T02941079  RH  008%=      5-min Rain = 0
KSB1 270206Z 30009KT 29/M08 A2992 RMK A01 T02931081  RH  008%=      5-min Rain = 0
KSB1 270207Z 30010KT 29/M08 A2992 RMK A01 T02931081  RH  008%=      5-min Rain = 0
KSB1 270208Z 30009KT 29/M08 A2992 RMK A01 T02921084  RH  008%=      5-min Rain = 0
KSB1 270209Z 30012KT 29/M08 A2992 RMK A01 T02921083  RH  008%=      5-min Rain = 0
KSB1 270210Z 31012G17KT 29/M09 A2992 RMK A01 T02911086  RH  008%=      5-min Rain = 0
KSB1 270211Z 31012KT 29/M09 A2992 RMK A01 T02921087  RH  008%=      5-min Rain = 0
KSB1 270212Z 31011KT 29/M09 A2992 RMK A01 T02921086  RH  008%=      5-min Rain = 0
KSB1 270213Z 31008KT 29/M09 A2992 RMK A01 T02911086  RH  008%=      5-min Rain = 0
KSB1 270214Z 31010KT 29/M09 A2992 RMK A01 T02891085  RH  008%=      5-min Rain = 0
KSB1 270215Z 30010KT 29/M09 A2992 RMK A01 T02891085  RH  008%=      5-min Rain = 0
KSB1 270216Z 30009KT 29/M09 A2992 RMK A01 T02881085  RH  008%=      5-min Rain = 0
KSB1 270217Z 29009KT 29/M09 A2992 RMK A01 T02881085  RH  008%=      5-min Rain = 0
KSB1 270218Z 29013KT 29/M09 A2992 RMK A01 T02861085  RH  008%=      5-min Rain = 0
KSB1 270219Z 29012KT 29/M09 A2992 RMK A01 T02861086  RH  008%=      5-min Rain = 0
KSB1 270220Z 29011KT 29/M09 A2992 RMK A01 T02861085  RH  008%=      5-min Rain = 0
KSB1 270221Z 29014KT 29/M09 A2992 RMK A01 T02851085  RH  008%=      5-min Rain = 0
KSB1 270222Z 32012KT 29/M09 A2992 RMK A01 T02851085  RH  008%=      5-min Rain = 0
KSB1 270223Z 30013KT 29/M09 A2992 RMK A01 T02851086  RH  008%=      5-min Rain = 0
KSB1 270224Z 29014KT 29/M09 A2993 RMK A01 T02861086  RH  008%=      5-min Rain = 0
KSB1 270225Z 31013KT 29/M09 A2993 RMK A01 T02851086  RH  008%=      5-min Rain = 0
KSB1 270226Z 29011KT 29/M09 A2993 RMK A01 T02851086  RH  008%=      5-min Rain = 0
KSB1 270227Z 30010KT 29/M09 A2993 RMK A01 T02851085  RH  008%=      5-min Rain = 0
KSB1 270228Z 31010KT 28/M08 A2993 RMK A01 T02841084  RH  008%=      5-min Rain = 0
KSB1 270229Z 30009KT 28/M09 A2993 RMK A01 T02831085  RH  008%=      5-min Rain = 0
KSB1 270230Z 29012KT 28/M09 A2993 RMK A01 T02831085  RH  008%=      5-min Rain = 0
KSB1 270231Z 29012KT 28/M09 A2993 RMK A01 T02831086  RH  008%=      5-min Rain = 0
KSB1 270232Z 29012KT 28/M09 A2993 RMK A01 T02831087  RH  008%=      5-min Rain = 0
KSB1 270233Z 31008KT 28/M09 A2993 RMK A01 T02831087  RH  008%=      5-min Rain = 0
KSB1 270234Z 30012KT 28/M09 A2993 RMK A01 T02831087  RH  008%=      5-min Rain = 0
KSB1 270235Z 30010KT 28/M09 A2993 RMK A01 T02821087  RH  008%=      5-min Rain = 0
KSB1 270236Z 31012KT 28/M09 A2993 RMK A01 T02821087  RH  008%=      5-min Rain = 0
KSB1 270237Z 31013KT 28/M08 A2993 RMK A01 T02811083  RH  009%=      5-min Rain = 0
KSB1 270238Z 31014KT 28/M08 A2993 RMK A01 T02811078  RH  009%=      5-min Rain = 0
KSB1 270239Z 32013KT 28/M07 A2993 RMK A01 T02791073  RH  009%=      5-min Rain = 0
KSB1 270240Z 31014KT 28/M07 A2993 RMK A01 T02771071  RH  010%=      5-min Rain = 0
KSB1 270241Z 30015KT 28/M07 A2993 RMK A01 T02761070  RH  010%=      5-min Rain = 0
KSB1 270242Z 31016KT 28/M07 A2993 RMK A01 T02751068  RH  010%=      5-min Rain = 0
KSB1 270243Z 31016G21KT 28/M07 A2993 RMK A01 T02751067  RH  010%=      5-min Rain = 0
KSB1 270244Z 30015KT 27/M07 A2994 RMK A01 T02741067  RH  010%=      5-min Rain = 0
KSB1 270245Z 31015KT 27/M07 A2994 RMK A01 T02741067  RH  010%=      5-min Rain = 0
KSB1 270246Z 31016KT 27/M07 A2994 RMK A01 T02731067  RH  010%=      5-min Rain = 0
KSB1 270247Z 31019KT 27/M07 A2994 RMK A01 T02731066  RH  010%=      5-min Rain = 0
KSB1 270248Z 32019KT 27/M07 A2994 RMK A01 T02731067  RH  010%=      5-min Rain = 0
KSB1 270249Z 32018KT 27/M07 A2994 RMK A01 T02731068  RH  010%=      5-min Rain = 0
KSB1 270250Z 31019KT 27/M07 A2994 RMK A01 T02731068  RH  010%=      5-min Rain = 0
KSB1 270251Z 31018KT 27/M07 A2994 RMK A01 T02731068  RH  010%=      5-min Rain = 0
KSB1 270252Z 32019KT 27/M07 A2994 RMK A01 T02731067  RH  010%=      5-min Rain = 0
KSB1 270253Z 32018KT 27/M07 A2994 RMK A01 T02731067  RH  010%=      5-min Rain = 0
KSB1 270254Z 31017KT 27/M07 A2994 RMK A01 T02721067  RH  010%=      5-min Rain = 0
KSB1 270255Z 32018G23KT 27/M07 A2994 RMK A01 T02721067  RH  010%=      5-min Rain = 0
KSB1 270256Z 31017KT 27/M07 A2994 RMK A01 T02721066  RH  010%=      5-min Rain = 0
KSB1 270257Z 31016KT 27/M07 A2995 RMK A01 T02721066  RH  010%=      5-min Rain = 0
KSB1 270258Z 32018KT 27/M07 A2995 RMK A01 T02711066  RH  010%=      5-min Rain = 0
KSB1 270259Z 31014G19KT 27/M07 A2995 RMK A01 T02711066  RH  010%=      5-min Rain = 0
KSB1 270300Z 31015KT 27/M07 A2995 RMK A01 T02701066  RH  011%=      5-min Rain = 0
KSB1 270301Z 32014KT 27/M07 A2995 RMK A01 T02691065  RH  011%=      5-min Rain = 0
KSB1 270302Z 32012KT 27/M07 A2995 RMK A01 T02681065  RH  011%=      5-min Rain = 0
KSB1 270303Z 32013KT 27/M06 A2995 RMK A01 T02671064  RH  011%=      5-min Rain = 0
KSB1 270304Z 32012KT 27/M06 A2995 RMK A01 T02661064  RH  011%=      5-min Rain = 0
KSB1 270305Z 33013KT 27/M06 A2995 RMK A01 T02661064  RH  011%=      5-min Rain = 0
KSB1 270306Z 32010KT 27/M06 A2995 RMK A01 T02651064  RH  011%=      5-min Rain = 0
KSB1 270307Z 32010KT 26/M06 A2995 RMK A01 T02631063  RH  011%=      5-min Rain = 0
KSB1 270308Z 32010KT 26/M06 A2995 RMK A01 T02621063  RH  011%=      5-min Rain = 0
KSB1 270309Z 32010KT 26/M06 A2995 RMK A01 T02611063  RH  011%=      5-min Rain = 0
KSB1 270310Z 32011KT 26/M06 A2995 RMK A01 T02611063  RH  011%=      5-min Rain = 0
KSB1 270311Z 32011KT 26/M06 A2995 RMK A01 T02601064  RH  011%=      5-min Rain = 0
KSB1 270312Z 32011KT 26/M06 A2996 RMK A01 T02601063  RH  011%=      5-min Rain = 0
KSB1 270313Z 32011KT 26/M06 A2996 RMK A01 T02591063  RH  011%=      5-min Rain = 0
KSB1 270314Z 32011KT 26/M06 A2996 RMK A01 T02591063  RH  011%=      5-min Rain = 0
KSB1 270315Z 32011KT 26/M06 A2996 RMK A01 T02591064  RH  011%=      5-min Rain = 0
KSB1 270316Z 32011KT 26/M06 A2996 RMK A01 T02591064  RH  011%=      5-min Rain = 0
KSB1 270317Z 32013KT 26/M06 A2996 RMK A01 T02581064  RH  011%=      5-min Rain = 0
KSB1 270318Z 32011KT 26/M06 A2996 RMK A01 T02591064  RH  011%=      5-min Rain = 0
KSB1 270319Z 31013KT 26/M06 A2996 RMK A01 T02581064  RH  011%=      5-min Rain = 0
KSB1 270320Z 32012KT 26/M06 A2996 RMK A01 T02591063  RH  011%=      5-min Rain = 0
KSB1 270321Z 31012KT 26/M06 A2996 RMK A01 T02591064  RH  011%=      5-min Rain = 0
KSB1 270322Z 31012KT 26/M06 A2996 RMK A01 T02591064  RH  011%=      5-min Rain = 0
KSB1 270323Z 31012KT 26/M06 A2996 RMK A01 T02591063  RH  011%=      5-min Rain = 0
KSB1 270324Z 31012KT 26/M06 A2996 RMK A01 T02591064  RH  011%=      5-min Rain = 0
KSB1 270325Z 31011KT 26/M06 A2996 RMK A01 T02581064  RH  011%=      5-min Rain = 0
KSB1 270326Z 31011KT 26/M06 A2996 RMK A01 T02571064  RH  011%=      5-min Rain = 0
KSB1 270327Z 31014KT 26/M06 A2996 RMK A01 T02571064  RH  011%=      5-min Rain = 0
KSB1 270328Z 31014KT 26/M06 A2996 RMK A01 T02581064  RH  011%=      5-min Rain = 0
KSB1 270329Z 30012KT 26/M06 A2996 RMK A01 T02581064  RH  011%=      5-min Rain = 0
KSB1 270330Z 31013KT 26/M06 A2996 RMK A01 T02581064  RH  011%=      5-min Rain = 0
KSB1 270331Z 31014KT 26/M06 A2996 RMK A01 T02581064  RH  011%=      5-min Rain = 0
KSB1 270332Z 30013KT 26/M06 A2997 RMK A01 T02571064  RH  011%=      5-min Rain = 0
KSB1 270333Z 31014KT 26/M06 A2997 RMK A01 T02571064  RH  011%=      5-min Rain = 0
KSB1 270334Z 31013KT 26/M07 A2997 RMK A01 T02571065  RH  011%=      5-min Rain = 0
KSB1 270335Z 30016KT 26/M07 A2996 RMK A01 T02571065  RH  011%=      5-min Rain = 0
KSB1 270336Z 30015KT 26/M07 A2997 RMK A01 T02571065  RH  011%=      5-min Rain = 0
KSB1 270337Z 30017KT 26/M07 A2997 RMK A01 T02581065  RH  011%=      5-min Rain = 0
KSB1 270338Z 30016KT 26/M07 A2997 RMK A01 T02581065  RH  011%=      5-min Rain = 0
KSB1 270339Z 30016KT 26/M06 A2997 RMK A01 T02591064  RH  011%=      5-min Rain = 0
KSB1 270340Z 31014KT 26/M07 A2997 RMK A01 T02581065  RH  011%=      5-min Rain = 0
KSB1 270341Z 31016KT 26/M07 A2997 RMK A01 T02581065  RH  011%=      5-min Rain = 0
KSB1 270342Z 30018KT 26/M07 A2997 RMK A01 T02571065  RH  011%=      5-min Rain = 0
KSB1 270343Z 30020KT 26/M07 A2997 RMK A01 T02571066  RH  011%=      5-min Rain = 0
KSB1 270344Z 30017KT 26/M07 A2997 RMK A01 T02581066  RH  011%=      5-min Rain = 0
KSB1 270345Z 30015KT 26/M07 A2997 RMK A01 T02581065  RH  011%=      5-min Rain = 0
KSB1 270346Z 31016KT 26/M07 A2997 RMK A01 T02571065  RH  011%=      5-min Rain = 0
KSB1 270347Z 30016KT 26/M07 A2997 RMK A01 T02561065  RH  011%=      5-min Rain = 0
KSB1 270348Z 30017KT 26/M07 A2997 RMK A01 T02561065  RH  011%=      5-min Rain = 0
KSB1 270349Z 31018KT 26/M07 A2997 RMK A01 T02561066  RH  011%=      5-min Rain = 0
KSB1 270350Z 30017KT 26/M07 A2997 RMK A01 T02561065  RH  011%=      5-min Rain = 0
KSB1 270351Z 30017KT 26/M07 A2998 RMK A01 T02561066  RH  011%=      5-min Rain = 0
KSB1 270352Z 30017KT 26/M07 A2998 RMK A01 T02561065  RH  011%=      5-min Rain = 0
KSB1 270353Z 31018G23KT 26/M07 A2998 RMK A01 T02551065  RH  011%=      5-min Rain = 0
KSB1 270354Z 31016KT 26/M07 A2998 RMK A01 T02551066  RH  011%=      5-min Rain = 0
KSB1 270355Z 30017KT 26/M07 A2998 RMK A01 T02551066  RH  011%=      5-min Rain = 0
KSB1 270356Z 31016KT 25/M07 A2998 RMK A01 T02541066  RH  011%=      5-min Rain = 0
KSB1 270357Z 30016KT 25/M07 A2998 RMK A01 T02541066  RH  012%=      5-min Rain = 0
KSB1 270358Z 31016KT 25/M07 A2998 RMK A01 T02541066  RH  012%=      5-min Rain = 0
KSB1 270359Z 30017KT 25/M07 A2998 RMK A01 T02541066  RH  012%=      5-min Rain = 0
KSB1 270400Z 31015KT 25/M07 A2998 RMK A01 T02541066  RH  012%=      5-min Rain = 0
KSB1 270401Z 30016KT 25/M07 A2998 RMK A01 T02531066  RH  012%=      5-min Rain = 0
KSB1 270402Z 30017KT 25/M07 A2998 RMK A01 T02521066  RH  012%=      5-min Rain = 0
KSB1 270403Z 31017KT 25/M07 A2998 RMK A01 T02521067  RH  012%=      5-min Rain = 0
KSB1 270404Z 31019KT 25/M07 A2998 RMK A01 T02521067  RH  012%=      5-min Rain = 0
KSB1 270405Z 31017KT 25/M07 A2998 RMK A01 T02521067  RH  012%=      5-min Rain = 0
KSB1 270406Z 31017KT 25/M07 A2998 RMK A01 T02521067  RH  012%=      5-min Rain = 0
KSB1 270407Z 30015KT 25/M07 A2998 RMK A01 T02521067  RH  012%=      5-min Rain = 0
KSB1 270408Z 30014G19KT 25/M07 A2998 RMK A01 T02511067  RH  012%=      5-min Rain = 0
KSB1 270409Z 30015KT 25/M07 A2998 RMK A01 T02511067  RH  012%=      5-min Rain = 0
KSB1 270410Z 31017KT 25/M07 A2998 RMK A01 T02511067  RH  012%=      5-min Rain = 0
KSB1 270411Z 31018G23KT 25/M07 A2998 RMK A01 T02501068  RH  012%=      5-min Rain = 0
KSB1 270412Z 30017G23KT 25/M07 A2998 RMK A01 T02501068  RH  012%=      5-min Rain = 0
KSB1 270413Z 30016KT 25/M07 A2998 RMK A01 T02511068  RH  012%=      5-min Rain = 0
KSB1 270414Z 30016KT 25/M07 A2998 RMK A01 T02511068  RH  012%=      5-min Rain = 0
KSB1 270415Z 30016KT 25/M07 A2998 RMK A01 T02501068  RH  012%=      5-min Rain = 0
KSB1 270416Z 31017KT 25/M07 A2998 RMK A01 T02501068  RH  012%=      5-min Rain = 0
KSB1 270417Z 30016KT 25/M07 A2998 RMK A01 T02501068  RH  012%=      5-min Rain = 0
KSB1 270418Z 30016KT 25/M07 A2998 RMK A01 T02501068  RH  012%=      5-min Rain = 0
KSB1 270419Z 31017KT 25/M07 A2998 RMK A01 T02491068  RH  012%=      5-min Rain = 0
KSB1 270420Z 30015KT 25/M07 A2998 RMK A01 T02481069  RH  012%=      5-min Rain = 0
KSB1 270421Z 30017KT 25/M07 A2999 RMK A01 T02481069  RH  012%=      5-min Rain = 0
KSB1 270422Z 31015KT 25/M07 A2998 RMK A01 T02481069  RH  012%=      5-min Rain = 0
KSB1 270423Z 30012G17KT 25/M07 A2999 RMK A01 T02481069  RH  012%=      5-min Rain = 0
KSB1 270424Z 31015KT 25/M07 A2999 RMK A01 T02471068  RH  012%=      5-min Rain = 0
KSB1 270425Z 30016KT 25/M07 A2999 RMK A01 T02461069  RH  012%=      5-min Rain = 0
KSB1 270426Z 30017KT 25/M07 A2998 RMK A01 T02461069  RH  012%=      5-min Rain = 0
KSB1 270427Z 31017KT 25/M07 A2999 RMK A01 T02471069  RH  012%=      5-min Rain = 0
KSB1 270428Z 31017KT 25/M07 A2999 RMK A01 T02471069  RH  012%=      5-min Rain = 0
KSB1 270429Z 30018KT 25/M07 A2999 RMK A01 T02481069  RH  012%=      5-min Rain = 0
KSB1 270430Z 30015KT 25/M07 A2999 RMK A01 T02481069  RH  012%=      5-min Rain = 0
KSB1 270431Z 31014KT 25/M07 A2999 RMK A01 T02471069  RH  012%=      5-min Rain = 0
KSB1 270432Z 31016KT 25/M07 A2999 RMK A01 T02471069  RH  012%=      5-min Rain = 0
KSB1 270433Z 31016KT 25/M07 A2999 RMK A01 T02471069  RH  012%=      5-min Rain = 0
KSB1 270434Z 31017KT 25/M07 A2999 RMK A01 T02471069  RH  012%=      5-min Rain = 0
KSB1 270435Z 31015G21KT 25/M07 A2999 RMK A01 T02471069  RH  012%=      5-min Rain = 0
KSB1 270436Z 30017KT 25/M07 A2999 RMK A01 T02471069  RH  012%=      5-min Rain = 0
KSB1 270437Z 31016KT 25/M07 A2999 RMK A01 T02471069  RH  012%=      5-min Rain = 0
KSB1 270438Z 30018KT 25/M07 A2999 RMK A01 T02471070  RH  012%=      5-min Rain = 0
KSB1 270439Z 31017KT 25/M07 A2999 RMK A01 T02481070  RH  012%=      5-min Rain = 0
KSB1 270440Z 31018KT 25/M07 A2999 RMK A01 T02481070  RH  012%=      5-min Rain = 0
KSB1 270441Z 31018KT 25/M07 A2999 RMK A01 T02481070  RH  012%=      5-min Rain = 0
KSB1 270442Z 31016KT 25/M07 A2999 RMK A01 T02481071  RH  012%=      5-min Rain = 0
KSB1 270443Z 30017G22KT 25/M07 A2999 RMK A01 T02491070  RH  012%=      5-min Rain = 0
KSB1 270444Z 31016KT 25/M07 A2999 RMK A01 T02481070  RH  012%=      5-min Rain = 0
KSB1 270445Z 31020KT 25/M07 A2999 RMK A01 T02481071  RH  012%=      5-min Rain = 0
KSB1 270446Z 30019KT 25/M07 A2999 RMK A01 T02481070  RH  012%=      5-min Rain = 0
KSB1 270447Z 31017KT 25/M07 A2999 RMK A01 T02481071  RH  011%=      5-min Rain = 0
KSB1 270448Z 31018KT 25/M07 A2999 RMK A01 T02481070  RH  012%=      5-min Rain = 0
KSB1 270449Z 30018KT 25/M07 A2999 RMK A01 T02481070  RH  012%=      5-min Rain = 0
KSB1 270450Z 31020KT 25/M07 A2999 RMK A01 T02481071  RH  012%=      5-min Rain = 0
KSB1 270451Z 31019KT 25/M07 A2999 RMK A01 T02481070  RH  012%=      5-min Rain = 0
KSB1 270452Z 31020G25KT 25/M07 A2999 RMK A01 T02491070  RH  011%=      5-min Rain = 0
KSB1 270453Z 31019KT 25/M07 A2999 RMK A01 T02491071  RH  011%=      5-min Rain = 0
KSB1 270454Z 30016KT 25/M07 A2999 RMK A01 T02491071  RH  011%=      5-min Rain = 0
KSB1 270455Z 31016KT 25/M07 A2999 RMK A01 T02481070  RH  012%=      5-min Rain = 0
KSB1 270456Z 31017G22KT 25/M07 A2999 RMK A01 T02471071  RH  012%=      5-min Rain = 0
KSB1 270457Z 31014KT 25/M07 A2999 RMK A01 T02481070  RH  012%=      5-min Rain = 0
KSB1 270458Z 31014KT 25/M07 A2999 RMK A01 T02471070  RH  012%=      5-min Rain = 0
KSB1 270459Z 31016KT 25/M07 A2999 RMK A01 T02471070  RH  012%=      5-min Rain = 0

Page generated in 0.0725 seconds.